<?xml version="1.0" encoding="UTF-8" standalone="no" ?>
<gpx xmlns="http://www.topografix.com/GPX/1/1" xmlns:xsi="http://www.w3.org/2001/XMLSchema-instance" xsi:schemaLocation="http://www.topografix.com/GPX/1/1 http://www.topografix.com/GPX/1/1/gpx.xsd" version="1.1" creator="VisuGPX - https://www.visugpx.com">
  <metadata>
    <name>Dives sur Mer - Cabourg</name>
    <desc><![CDATA[Dives sur Mer - Cabourg par la plage]]></desc>
  </metadata>
  <trk>
    <name><![CDATA[Dives sur Mer - Cabourg_1]]></name>
    <trkseg>
      <trkpt lat="49.29008" lon="-0.10231">
        <ele>1</ele>
        <time>2017-11-26T09:35:30Z</time>
      </trkpt>
      <trkpt lat="49.29013" lon="-0.102">
        <ele>2</ele>
        <time>2017-11-26T09:36:29Z</time>
      </trkpt>
      <trkpt lat="49.29018" lon="-0.10193">
        <ele>2</ele>
        <time>2017-11-26T09:36:35Z</time>
      </trkpt>
      <trkpt lat="49.29021" lon="-0.10186">
        <ele>2</ele>
        <time>2017-11-26T09:36:41Z</time>
      </trkpt>
      <trkpt lat="49.29025" lon="-0.10178">
        <ele>2</ele>
        <time>2017-11-26T09:36:47Z</time>
      </trkpt>
      <trkpt lat="49.2903" lon="-0.10172">
        <ele>2</ele>
        <time>2017-11-26T09:36:53Z</time>
      </trkpt>
      <trkpt lat="49.29033" lon="-0.10165">
        <ele>2</ele>
        <time>2017-11-26T09:36:59Z</time>
      </trkpt>
      <trkpt lat="49.29038" lon="-0.10158">
        <ele>2</ele>
        <time>2017-11-26T09:37:04Z</time>
      </trkpt>
      <trkpt lat="49.29042" lon="-0.10155">
        <ele>2</ele>
        <time>2017-11-26T09:37:09Z</time>
      </trkpt>
      <trkpt lat="49.29046" lon="-0.10151">
        <ele>2</ele>
        <time>2017-11-26T09:37:14Z</time>
      </trkpt>
      <trkpt lat="49.2905" lon="-0.10143">
        <ele>2</ele>
        <time>2017-11-26T09:37:20Z</time>
      </trkpt>
      <trkpt lat="49.29057" lon="-0.10137">
        <ele>2</ele>
        <time>2017-11-26T09:37:25Z</time>
      </trkpt>
      <trkpt lat="49.29062" lon="-0.10131">
        <ele>2</ele>
        <time>2017-11-26T09:37:30Z</time>
      </trkpt>
      <trkpt lat="49.29068" lon="-0.10126">
        <ele>2</ele>
        <time>2017-11-26T09:37:36Z</time>
      </trkpt>
      <trkpt lat="49.29072" lon="-0.10121">
        <ele>2</ele>
        <time>2017-11-26T09:37:43Z</time>
      </trkpt>
      <trkpt lat="49.29076" lon="-0.10113">
        <ele>2</ele>
        <time>2017-11-26T09:37:49Z</time>
      </trkpt>
      <trkpt lat="49.29081" lon="-0.10106">
        <ele>2</ele>
        <time>2017-11-26T09:37:55Z</time>
      </trkpt>
      <trkpt lat="49.29087" lon="-0.10099">
        <ele>2</ele>
        <time>2017-11-26T09:38:01Z</time>
      </trkpt>
      <trkpt lat="49.29092" lon="-0.10092">
        <ele>2</ele>
        <time>2017-11-26T09:38:07Z</time>
      </trkpt>
      <trkpt lat="49.29096" lon="-0.10085">
        <ele>2</ele>
        <time>2017-11-26T09:38:13Z</time>
      </trkpt>
      <trkpt lat="49.291" lon="-0.10077">
        <ele>3</ele>
        <time>2017-11-26T09:38:19Z</time>
      </trkpt>
      <trkpt lat="49.29105" lon="-0.1007">
        <ele>3</ele>
        <time>2017-11-26T09:38:25Z</time>
      </trkpt>
      <trkpt lat="49.29109" lon="-0.10063">
        <ele>3</ele>
        <time>2017-11-26T09:38:31Z</time>
      </trkpt>
      <trkpt lat="49.29113" lon="-0.10055">
        <ele>3</ele>
        <time>2017-11-26T09:38:37Z</time>
      </trkpt>
      <trkpt lat="49.29117" lon="-0.10048">
        <ele>3</ele>
        <time>2017-11-26T09:38:42Z</time>
      </trkpt>
      <trkpt lat="49.29122" lon="-0.10041">
        <ele>3</ele>
        <time>2017-11-26T09:38:48Z</time>
      </trkpt>
      <trkpt lat="49.29126" lon="-0.10035">
        <ele>3</ele>
        <time>2017-11-26T09:38:54Z</time>
      </trkpt>
      <trkpt lat="49.29131" lon="-0.10028">
        <ele>3</ele>
        <time>2017-11-26T09:39:00Z</time>
      </trkpt>
      <trkpt lat="49.29135" lon="-0.10021">
        <ele>3</ele>
        <time>2017-11-26T09:39:05Z</time>
      </trkpt>
      <trkpt lat="49.2914" lon="-0.10015">
        <ele>3</ele>
        <time>2017-11-26T09:39:11Z</time>
      </trkpt>
      <trkpt lat="49.29142" lon="-0.10019">
        <ele>3</ele>
        <time>2017-11-26T09:39:16Z</time>
      </trkpt>
      <trkpt lat="49.29145" lon="-0.10024">
        <ele>3</ele>
        <time>2017-11-26T09:39:22Z</time>
      </trkpt>
      <trkpt lat="49.29145" lon="-0.1003">
        <ele>3</ele>
        <time>2017-11-26T09:39:27Z</time>
      </trkpt>
      <trkpt lat="49.29142" lon="-0.10036">
        <ele>3</ele>
        <time>2017-11-26T09:39:33Z</time>
      </trkpt>
      <trkpt lat="49.2914" lon="-0.1004">
        <ele>3</ele>
        <time>2017-11-26T09:39:39Z</time>
      </trkpt>
      <trkpt lat="49.29139" lon="-0.10044">
        <ele>3</ele>
        <time>2017-11-26T09:39:46Z</time>
      </trkpt>
      <trkpt lat="49.29147" lon="-0.10036">
        <ele>3</ele>
        <time>2017-11-26T09:39:51Z</time>
      </trkpt>
      <trkpt lat="49.29152" lon="-0.10035">
        <ele>3</ele>
        <time>2017-11-26T09:39:56Z</time>
      </trkpt>
      <trkpt lat="49.29157" lon="-0.10036">
        <ele>3</ele>
        <time>2017-11-26T09:40:01Z</time>
      </trkpt>
      <trkpt lat="49.29164" lon="-0.10036">
        <ele>3</ele>
        <time>2017-11-26T09:40:07Z</time>
      </trkpt>
      <trkpt lat="49.2917" lon="-0.1003">
        <ele>3</ele>
        <time>2017-11-26T09:40:13Z</time>
      </trkpt>
      <trkpt lat="49.29175" lon="-0.10029">
        <ele>3</ele>
        <time>2017-11-26T09:40:19Z</time>
      </trkpt>
      <trkpt lat="49.29179" lon="-0.10025">
        <ele>3</ele>
        <time>2017-11-26T09:40:25Z</time>
      </trkpt>
      <trkpt lat="49.29183" lon="-0.10021">
        <ele>3</ele>
        <time>2017-11-26T09:40:31Z</time>
      </trkpt>
      <trkpt lat="49.29189" lon="-0.10021">
        <ele>3</ele>
        <time>2017-11-26T09:40:36Z</time>
      </trkpt>
      <trkpt lat="49.29194" lon="-0.10021">
        <ele>3</ele>
        <time>2017-11-26T09:40:41Z</time>
      </trkpt>
      <trkpt lat="49.29202" lon="-0.10019">
        <ele>3</ele>
        <time>2017-11-26T09:40:46Z</time>
      </trkpt>
      <trkpt lat="49.29208" lon="-0.10021">
        <ele>3</ele>
        <time>2017-11-26T09:40:52Z</time>
      </trkpt>
      <trkpt lat="49.29214" lon="-0.10024">
        <ele>3</ele>
        <time>2017-11-26T09:40:58Z</time>
      </trkpt>
      <trkpt lat="49.29219" lon="-0.10026">
        <ele>3</ele>
        <time>2017-11-26T09:41:03Z</time>
      </trkpt>
      <trkpt lat="49.29226" lon="-0.10026">
        <ele>2</ele>
        <time>2017-11-26T09:41:08Z</time>
      </trkpt>
      <trkpt lat="49.29232" lon="-0.10026">
        <ele>2</ele>
        <time>2017-11-26T09:41:14Z</time>
      </trkpt>
      <trkpt lat="49.29239" lon="-0.10025">
        <ele>2</ele>
        <time>2017-11-26T09:41:20Z</time>
      </trkpt>
      <trkpt lat="49.29244" lon="-0.10025">
        <ele>2</ele>
        <time>2017-11-26T09:41:25Z</time>
      </trkpt>
      <trkpt lat="49.29249" lon="-0.10025">
        <ele>2</ele>
        <time>2017-11-26T09:41:30Z</time>
      </trkpt>
      <trkpt lat="49.29255" lon="-0.10028">
        <ele>3</ele>
        <time>2017-11-26T09:41:36Z</time>
      </trkpt>
      <trkpt lat="49.29261" lon="-0.10032">
        <ele>3</ele>
        <time>2017-11-26T09:41:42Z</time>
      </trkpt>
      <trkpt lat="49.29266" lon="-0.10036">
        <ele>3</ele>
        <time>2017-11-26T09:41:48Z</time>
      </trkpt>
      <trkpt lat="49.29272" lon="-0.10039">
        <ele>4</ele>
        <time>2017-11-26T09:41:53Z</time>
      </trkpt>
      <trkpt lat="49.29277" lon="-0.10042">
        <ele>4</ele>
        <time>2017-11-26T09:41:58Z</time>
      </trkpt>
      <trkpt lat="49.29283" lon="-0.10044">
        <ele>4</ele>
        <time>2017-11-26T09:42:03Z</time>
      </trkpt>
      <trkpt lat="49.29289" lon="-0.10042">
        <ele>4</ele>
        <time>2017-11-26T09:42:09Z</time>
      </trkpt>
      <trkpt lat="49.29294" lon="-0.10034">
        <ele>4</ele>
        <time>2017-11-26T09:42:15Z</time>
      </trkpt>
      <trkpt lat="49.29298" lon="-0.10026">
        <ele>4</ele>
        <time>2017-11-26T09:42:21Z</time>
      </trkpt>
      <trkpt lat="49.29301" lon="-0.10018">
        <ele>4</ele>
        <time>2017-11-26T09:42:26Z</time>
      </trkpt>
      <trkpt lat="49.29303" lon="-0.1001">
        <ele>4</ele>
        <time>2017-11-26T09:42:32Z</time>
      </trkpt>
      <trkpt lat="49.29306" lon="-0.10003">
        <ele>4</ele>
        <time>2017-11-26T09:42:37Z</time>
      </trkpt>
      <trkpt lat="49.29309" lon="-0.09996">
        <ele>4</ele>
        <time>2017-11-26T09:42:43Z</time>
      </trkpt>
      <trkpt lat="49.2931" lon="-0.09988">
        <ele>4</ele>
        <time>2017-11-26T09:42:48Z</time>
      </trkpt>
      <trkpt lat="49.29312" lon="-0.09979">
        <ele>4</ele>
        <time>2017-11-26T09:42:54Z</time>
      </trkpt>
      <trkpt lat="49.29314" lon="-0.09968">
        <ele>3</ele>
        <time>2017-11-26T09:43:00Z</time>
      </trkpt>
      <trkpt lat="49.2932" lon="-0.09963">
        <ele>3</ele>
        <time>2017-11-26T09:43:06Z</time>
      </trkpt>
      <trkpt lat="49.29326" lon="-0.09958">
        <ele>3</ele>
        <time>2017-11-26T09:43:12Z</time>
      </trkpt>
      <trkpt lat="49.29331" lon="-0.09955">
        <ele>3</ele>
        <time>2017-11-26T09:43:18Z</time>
      </trkpt>
      <trkpt lat="49.29332" lon="-0.09952">
        <ele>3</ele>
        <time>2017-11-26T09:43:23Z</time>
      </trkpt>
      <trkpt lat="49.29338" lon="-0.0996">
        <ele>4</ele>
        <time>2017-11-26T09:43:28Z</time>
      </trkpt>
      <trkpt lat="49.29341" lon="-0.09953">
        <ele>3</ele>
        <time>2017-11-26T09:43:37Z</time>
      </trkpt>
      <trkpt lat="49.29337" lon="-0.0995">
        <ele>3</ele>
        <time>2017-11-26T09:43:42Z</time>
      </trkpt>
      <trkpt lat="49.29338" lon="-0.09952">
        <ele>3</ele>
        <time>2017-11-26T09:43:48Z</time>
      </trkpt>
      <trkpt lat="49.29343" lon="-0.09958">
        <ele>4</ele>
        <time>2017-11-26T09:43:54Z</time>
      </trkpt>
      <trkpt lat="49.29348" lon="-0.09961">
        <ele>4</ele>
        <time>2017-11-26T09:44:00Z</time>
      </trkpt>
      <trkpt lat="49.29353" lon="-0.09962">
        <ele>4</ele>
        <time>2017-11-26T09:44:06Z</time>
      </trkpt>
      <trkpt lat="49.2936" lon="-0.09966">
        <ele>4</ele>
        <time>2017-11-26T09:44:11Z</time>
      </trkpt>
      <trkpt lat="49.29366" lon="-0.09974">
        <ele>4</ele>
        <time>2017-11-26T09:44:16Z</time>
      </trkpt>
      <trkpt lat="49.29373" lon="-0.09981">
        <ele>4</ele>
        <time>2017-11-26T09:44:21Z</time>
      </trkpt>
      <trkpt lat="49.2938" lon="-0.09987">
        <ele>4</ele>
        <time>2017-11-26T09:44:26Z</time>
      </trkpt>
      <trkpt lat="49.29385" lon="-0.09992">
        <ele>4</ele>
        <time>2017-11-26T09:44:31Z</time>
      </trkpt>
      <trkpt lat="49.29391" lon="-0.09997">
        <ele>4</ele>
        <time>2017-11-26T09:44:37Z</time>
      </trkpt>
      <trkpt lat="49.29398" lon="-0.10001">
        <ele>5</ele>
        <time>2017-11-26T09:44:43Z</time>
      </trkpt>
      <trkpt lat="49.29403" lon="-0.10006">
        <ele>5</ele>
        <time>2017-11-26T09:44:48Z</time>
      </trkpt>
      <trkpt lat="49.29408" lon="-0.10012">
        <ele>5</ele>
        <time>2017-11-26T09:44:54Z</time>
      </trkpt>
      <trkpt lat="49.2941" lon="-0.10016">
        <ele>5</ele>
        <time>2017-11-26T09:45:00Z</time>
      </trkpt>
      <trkpt lat="49.29414" lon="-0.10021">
        <ele>5</ele>
        <time>2017-11-26T09:45:06Z</time>
      </trkpt>
      <trkpt lat="49.29417" lon="-0.10029">
        <ele>5</ele>
        <time>2017-11-26T09:45:11Z</time>
      </trkpt>
      <trkpt lat="49.29419" lon="-0.10038">
        <ele>5</ele>
        <time>2017-11-26T09:45:16Z</time>
      </trkpt>
      <trkpt lat="49.29417" lon="-0.10049">
        <ele>6</ele>
        <time>2017-11-26T09:45:21Z</time>
      </trkpt>
      <trkpt lat="49.29415" lon="-0.10058">
        <ele>6</ele>
        <time>2017-11-26T09:45:27Z</time>
      </trkpt>
      <trkpt lat="49.29414" lon="-0.10067">
        <ele>6</ele>
        <time>2017-11-26T09:45:33Z</time>
      </trkpt>
      <trkpt lat="49.29417" lon="-0.10074">
        <ele>6</ele>
        <time>2017-11-26T09:45:38Z</time>
      </trkpt>
      <trkpt lat="49.29417" lon="-0.1008">
        <ele>7</ele>
        <time>2017-11-26T09:45:43Z</time>
      </trkpt>
      <trkpt lat="49.29419" lon="-0.10088">
        <ele>7</ele>
        <time>2017-11-26T09:45:48Z</time>
      </trkpt>
      <trkpt lat="49.29421" lon="-0.10097">
        <ele>6</ele>
        <time>2017-11-26T09:45:53Z</time>
      </trkpt>
      <trkpt lat="49.29422" lon="-0.10105">
        <ele>6</ele>
        <time>2017-11-26T09:45:58Z</time>
      </trkpt>
      <trkpt lat="49.29424" lon="-0.10114">
        <ele>6</ele>
        <time>2017-11-26T09:46:03Z</time>
      </trkpt>
      <trkpt lat="49.29425" lon="-0.10121">
        <ele>6</ele>
        <time>2017-11-26T09:46:08Z</time>
      </trkpt>
      <trkpt lat="49.29428" lon="-0.10129">
        <ele>6</ele>
        <time>2017-11-26T09:46:14Z</time>
      </trkpt>
      <trkpt lat="49.29433" lon="-0.10135">
        <ele>6</ele>
        <time>2017-11-26T09:46:20Z</time>
      </trkpt>
      <trkpt lat="49.29438" lon="-0.10141">
        <ele>6</ele>
        <time>2017-11-26T09:46:25Z</time>
      </trkpt>
      <trkpt lat="49.29443" lon="-0.10144">
        <ele>6</ele>
        <time>2017-11-26T09:46:30Z</time>
      </trkpt>
      <trkpt lat="49.29451" lon="-0.10147">
        <ele>6</ele>
        <time>2017-11-26T09:46:36Z</time>
      </trkpt>
      <trkpt lat="49.29456" lon="-0.10153">
        <ele>6</ele>
        <time>2017-11-26T09:46:42Z</time>
      </trkpt>
      <trkpt lat="49.29462" lon="-0.10159">
        <ele>5</ele>
        <time>2017-11-26T09:46:48Z</time>
      </trkpt>
      <trkpt lat="49.29467" lon="-0.10164">
        <ele>5</ele>
        <time>2017-11-26T09:46:53Z</time>
      </trkpt>
      <trkpt lat="49.29472" lon="-0.1017">
        <ele>4</ele>
        <time>2017-11-26T09:46:59Z</time>
      </trkpt>
      <trkpt lat="49.29478" lon="-0.10175">
        <ele>4</ele>
        <time>2017-11-26T09:47:05Z</time>
      </trkpt>
      <trkpt lat="49.29485" lon="-0.10179">
        <ele>4</ele>
        <time>2017-11-26T09:47:10Z</time>
      </trkpt>
      <trkpt lat="49.29491" lon="-0.10184">
        <ele>4</ele>
        <time>2017-11-26T09:47:16Z</time>
      </trkpt>
      <trkpt lat="49.29496" lon="-0.10189">
        <ele>4</ele>
        <time>2017-11-26T09:47:21Z</time>
      </trkpt>
      <trkpt lat="49.29503" lon="-0.10194">
        <ele>3</ele>
        <time>2017-11-26T09:47:27Z</time>
      </trkpt>
      <trkpt lat="49.29509" lon="-0.102">
        <ele>3</ele>
        <time>2017-11-26T09:47:33Z</time>
      </trkpt>
      <trkpt lat="49.29512" lon="-0.10203">
        <ele>3</ele>
        <time>2017-11-26T09:47:39Z</time>
      </trkpt>
      <trkpt lat="49.29517" lon="-0.10208">
        <ele>3</ele>
        <time>2017-11-26T09:47:45Z</time>
      </trkpt>
      <trkpt lat="49.29523" lon="-0.10213">
        <ele>2</ele>
        <time>2017-11-26T09:47:51Z</time>
      </trkpt>
      <trkpt lat="49.29528" lon="-0.10217">
        <ele>2</ele>
        <time>2017-11-26T09:47:56Z</time>
      </trkpt>
      <trkpt lat="49.29532" lon="-0.10221">
        <ele>2</ele>
        <time>2017-11-26T09:48:02Z</time>
      </trkpt>
      <trkpt lat="49.29537" lon="-0.10226">
        <ele>2</ele>
        <time>2017-11-26T09:48:09Z</time>
      </trkpt>
      <trkpt lat="49.29543" lon="-0.1023">
        <ele>2</ele>
        <time>2017-11-26T09:48:15Z</time>
      </trkpt>
      <trkpt lat="49.29548" lon="-0.10235">
        <ele>2</ele>
        <time>2017-11-26T09:48:21Z</time>
      </trkpt>
      <trkpt lat="49.29553" lon="-0.10238">
        <ele>2</ele>
        <time>2017-11-26T09:48:27Z</time>
      </trkpt>
      <trkpt lat="49.29559" lon="-0.10245">
        <ele>2</ele>
        <time>2017-11-26T09:48:32Z</time>
      </trkpt>
      <trkpt lat="49.29563" lon="-0.10249">
        <ele>2</ele>
        <time>2017-11-26T09:48:39Z</time>
      </trkpt>
      <trkpt lat="49.29569" lon="-0.10253">
        <ele>3</ele>
        <time>2017-11-26T09:48:45Z</time>
      </trkpt>
      <trkpt lat="49.29573" lon="-0.10257">
        <ele>3</ele>
        <time>2017-11-26T09:48:50Z</time>
      </trkpt>
      <trkpt lat="49.29578" lon="-0.10261">
        <ele>3</ele>
        <time>2017-11-26T09:48:56Z</time>
      </trkpt>
      <trkpt lat="49.29583" lon="-0.10265">
        <ele>3</ele>
        <time>2017-11-26T09:49:01Z</time>
      </trkpt>
      <trkpt lat="49.29588" lon="-0.10268">
        <ele>6</ele>
        <time>2017-11-26T09:49:06Z</time>
      </trkpt>
      <trkpt lat="49.29593" lon="-0.10272">
        <ele>6</ele>
        <time>2017-11-26T09:49:12Z</time>
      </trkpt>
      <trkpt lat="49.29599" lon="-0.10276">
        <ele>6</ele>
        <time>2017-11-26T09:49:17Z</time>
      </trkpt>
      <trkpt lat="49.29602" lon="-0.10278">
        <ele>6</ele>
        <time>2017-11-26T09:49:22Z</time>
      </trkpt>
      <trkpt lat="49.29604" lon="-0.10282">
        <ele>6</ele>
        <time>2017-11-26T09:49:28Z</time>
      </trkpt>
      <trkpt lat="49.29611" lon="-0.10282">
        <ele>6</ele>
        <time>2017-11-26T09:49:33Z</time>
      </trkpt>
      <trkpt lat="49.29616" lon="-0.10275">
        <ele>6</ele>
        <time>2017-11-26T09:49:39Z</time>
      </trkpt>
      <trkpt lat="49.2962" lon="-0.10266">
        <ele>6</ele>
        <time>2017-11-26T09:49:45Z</time>
      </trkpt>
      <trkpt lat="49.29623" lon="-0.10259">
        <ele>6</ele>
        <time>2017-11-26T09:49:51Z</time>
      </trkpt>
      <trkpt lat="49.29627" lon="-0.1025">
        <ele>6</ele>
        <time>2017-11-26T09:49:57Z</time>
      </trkpt>
      <trkpt lat="49.2963" lon="-0.10243">
        <ele>5</ele>
        <time>2017-11-26T09:50:03Z</time>
      </trkpt>
      <trkpt lat="49.29635" lon="-0.1024">
        <ele>5</ele>
        <time>2017-11-26T09:50:08Z</time>
      </trkpt>
      <trkpt lat="49.29639" lon="-0.1024">
        <ele>5</ele>
        <time>2017-11-26T09:50:14Z</time>
      </trkpt>
      <trkpt lat="49.29644" lon="-0.10238">
        <ele>5</ele>
        <time>2017-11-26T09:50:20Z</time>
      </trkpt>
      <trkpt lat="49.29647" lon="-0.10233">
        <ele>5</ele>
        <time>2017-11-26T09:50:26Z</time>
      </trkpt>
      <trkpt lat="49.29653" lon="-0.10228">
        <ele>5</ele>
        <time>2017-11-26T09:50:32Z</time>
      </trkpt>
      <trkpt lat="49.29659" lon="-0.10227">
        <ele>5</ele>
        <time>2017-11-26T09:50:37Z</time>
      </trkpt>
      <trkpt lat="49.29666" lon="-0.10228">
        <ele>5</ele>
        <time>2017-11-26T09:50:43Z</time>
      </trkpt>
      <trkpt lat="49.29672" lon="-0.10232">
        <ele>5</ele>
        <time>2017-11-26T09:50:49Z</time>
      </trkpt>
      <trkpt lat="49.29677" lon="-0.10236">
        <ele>5</ele>
        <time>2017-11-26T09:50:54Z</time>
      </trkpt>
      <trkpt lat="49.29683" lon="-0.10241">
        <ele>5</ele>
        <time>2017-11-26T09:51:00Z</time>
      </trkpt>
      <trkpt lat="49.29686" lon="-0.10243">
        <ele>5</ele>
        <time>2017-11-26T09:51:07Z</time>
      </trkpt>
      <trkpt lat="49.29691" lon="-0.10245">
        <ele>5</ele>
        <time>2017-11-26T09:51:13Z</time>
      </trkpt>
      <trkpt lat="49.29692" lon="-0.10247">
        <ele>5</ele>
        <time>2017-11-26T09:51:20Z</time>
      </trkpt>
      <trkpt lat="49.29695" lon="-0.10253">
        <ele>6</ele>
        <time>2017-11-26T09:51:26Z</time>
      </trkpt>
      <trkpt lat="49.29696" lon="-0.1026">
        <ele>7</ele>
        <time>2017-11-26T09:51:31Z</time>
      </trkpt>
      <trkpt lat="49.29698" lon="-0.10266">
        <ele>7</ele>
        <time>2017-11-26T09:51:37Z</time>
      </trkpt>
      <trkpt lat="49.297" lon="-0.10275">
        <ele>7</ele>
        <time>2017-11-26T09:51:42Z</time>
      </trkpt>
      <trkpt lat="49.297" lon="-0.10283">
        <ele>7</ele>
        <time>2017-11-26T09:51:47Z</time>
      </trkpt>
      <trkpt lat="49.29698" lon="-0.10289">
        <ele>7</ele>
        <time>2017-11-26T09:51:55Z</time>
      </trkpt>
      <trkpt lat="49.29695" lon="-0.10298">
        <ele>7</ele>
        <time>2017-11-26T09:52:01Z</time>
      </trkpt>
      <trkpt lat="49.29692" lon="-0.10306">
        <ele>7</ele>
        <time>2017-11-26T09:52:07Z</time>
      </trkpt>
      <trkpt lat="49.29688" lon="-0.10313">
        <ele>7</ele>
        <time>2017-11-26T09:52:13Z</time>
      </trkpt>
      <trkpt lat="49.29685" lon="-0.1032">
        <ele>8</ele>
        <time>2017-11-26T09:52:19Z</time>
      </trkpt>
      <trkpt lat="49.29675" lon="-0.10334">
        <ele>8</ele>
        <time>2017-11-26T09:52:30Z</time>
      </trkpt>
      <trkpt lat="49.29673" lon="-0.10343">
        <ele>8</ele>
        <time>2017-11-26T09:52:36Z</time>
      </trkpt>
      <trkpt lat="49.29671" lon="-0.10351">
        <ele>8</ele>
        <time>2017-11-26T09:52:41Z</time>
      </trkpt>
      <trkpt lat="49.2967" lon="-0.10359">
        <ele>8</ele>
        <time>2017-11-26T09:52:46Z</time>
      </trkpt>
      <trkpt lat="49.29668" lon="-0.10368">
        <ele>8</ele>
        <time>2017-11-26T09:52:52Z</time>
      </trkpt>
      <trkpt lat="49.29666" lon="-0.1038">
        <ele>8</ele>
        <time>2017-11-26T09:52:57Z</time>
      </trkpt>
      <trkpt lat="49.29663" lon="-0.10389">
        <ele>8</ele>
        <time>2017-11-26T09:53:03Z</time>
      </trkpt>
      <trkpt lat="49.2966" lon="-0.10396">
        <ele>8</ele>
        <time>2017-11-26T09:53:09Z</time>
      </trkpt>
      <trkpt lat="49.29658" lon="-0.10404">
        <ele>8</ele>
        <time>2017-11-26T09:53:14Z</time>
      </trkpt>
      <trkpt lat="49.29656" lon="-0.10412">
        <ele>8</ele>
        <time>2017-11-26T09:53:20Z</time>
      </trkpt>
      <trkpt lat="49.29654" lon="-0.10419">
        <ele>8</ele>
        <time>2017-11-26T09:53:25Z</time>
      </trkpt>
      <trkpt lat="49.29652" lon="-0.10428">
        <ele>8</ele>
        <time>2017-11-26T09:53:30Z</time>
      </trkpt>
      <trkpt lat="49.29651" lon="-0.10437">
        <ele>8</ele>
        <time>2017-11-26T09:53:36Z</time>
      </trkpt>
      <trkpt lat="49.29649" lon="-0.10445">
        <ele>8</ele>
        <time>2017-11-26T09:53:41Z</time>
      </trkpt>
      <trkpt lat="49.29648" lon="-0.10454">
        <ele>8</ele>
        <time>2017-11-26T09:53:46Z</time>
      </trkpt>
      <trkpt lat="49.29646" lon="-0.10463">
        <ele>8</ele>
        <time>2017-11-26T09:53:51Z</time>
      </trkpt>
      <trkpt lat="49.29644" lon="-0.10472">
        <ele>8</ele>
        <time>2017-11-26T09:53:57Z</time>
      </trkpt>
      <trkpt lat="49.29643" lon="-0.10482">
        <ele>8</ele>
        <time>2017-11-26T09:54:02Z</time>
      </trkpt>
      <trkpt lat="49.29641" lon="-0.10492">
        <ele>8</ele>
        <time>2017-11-26T09:54:07Z</time>
      </trkpt>
      <trkpt lat="49.29639" lon="-0.10502">
        <ele>8</ele>
        <time>2017-11-26T09:54:13Z</time>
      </trkpt>
      <trkpt lat="49.29638" lon="-0.1051">
        <ele>8</ele>
        <time>2017-11-26T09:54:19Z</time>
      </trkpt>
      <trkpt lat="49.29636" lon="-0.10518">
        <ele>8</ele>
        <time>2017-11-26T09:54:24Z</time>
      </trkpt>
      <trkpt lat="49.29635" lon="-0.10527">
        <ele>9</ele>
        <time>2017-11-26T09:54:29Z</time>
      </trkpt>
      <trkpt lat="49.29633" lon="-0.10536">
        <ele>9</ele>
        <time>2017-11-26T09:54:34Z</time>
      </trkpt>
      <trkpt lat="49.29631" lon="-0.10546">
        <ele>9</ele>
        <time>2017-11-26T09:54:40Z</time>
      </trkpt>
      <trkpt lat="49.29628" lon="-0.10555">
        <ele>9</ele>
        <time>2017-11-26T09:54:46Z</time>
      </trkpt>
      <trkpt lat="49.29626" lon="-0.10563">
        <ele>9</ele>
        <time>2017-11-26T09:54:52Z</time>
      </trkpt>
      <trkpt lat="49.29624" lon="-0.10572">
        <ele>10</ele>
        <time>2017-11-26T09:54:58Z</time>
      </trkpt>
      <trkpt lat="49.29623" lon="-0.10582">
        <ele>10</ele>
        <time>2017-11-26T09:55:04Z</time>
      </trkpt>
      <trkpt lat="49.29622" lon="-0.1059">
        <ele>10</ele>
        <time>2017-11-26T09:55:09Z</time>
      </trkpt>
      <trkpt lat="49.2962" lon="-0.10599">
        <ele>10</ele>
        <time>2017-11-26T09:55:15Z</time>
      </trkpt>
      <trkpt lat="49.29618" lon="-0.10606">
        <ele>10</ele>
        <time>2017-11-26T09:55:20Z</time>
      </trkpt>
      <trkpt lat="49.29617" lon="-0.10615">
        <ele>10</ele>
        <time>2017-11-26T09:55:26Z</time>
      </trkpt>
      <trkpt lat="49.29615" lon="-0.10623">
        <ele>10</ele>
        <time>2017-11-26T09:55:32Z</time>
      </trkpt>
      <trkpt lat="49.29613" lon="-0.10631">
        <ele>9</ele>
        <time>2017-11-26T09:55:37Z</time>
      </trkpt>
      <trkpt lat="49.29611" lon="-0.10641">
        <ele>9</ele>
        <time>2017-11-26T09:55:43Z</time>
      </trkpt>
      <trkpt lat="49.29609" lon="-0.10649">
        <ele>9</ele>
        <time>2017-11-26T09:55:48Z</time>
      </trkpt>
      <trkpt lat="49.29607" lon="-0.10658">
        <ele>9</ele>
        <time>2017-11-26T09:55:53Z</time>
      </trkpt>
      <trkpt lat="49.29606" lon="-0.10666">
        <ele>9</ele>
        <time>2017-11-26T09:55:58Z</time>
      </trkpt>
      <trkpt lat="49.29605" lon="-0.10674">
        <ele>9</ele>
        <time>2017-11-26T09:56:03Z</time>
      </trkpt>
      <trkpt lat="49.29603" lon="-0.10684">
        <ele>9</ele>
        <time>2017-11-26T09:56:09Z</time>
      </trkpt>
      <trkpt lat="49.29602" lon="-0.10694">
        <ele>9</ele>
        <time>2017-11-26T09:56:15Z</time>
      </trkpt>
      <trkpt lat="49.296" lon="-0.10704">
        <ele>9</ele>
        <time>2017-11-26T09:56:21Z</time>
      </trkpt>
      <trkpt lat="49.29598" lon="-0.10712">
        <ele>10</ele>
        <time>2017-11-26T09:56:26Z</time>
      </trkpt>
      <trkpt lat="49.29596" lon="-0.1072">
        <ele>10</ele>
        <time>2017-11-26T09:56:31Z</time>
      </trkpt>
      <trkpt lat="49.29594" lon="-0.10728">
        <ele>10</ele>
        <time>2017-11-26T09:56:36Z</time>
      </trkpt>
      <trkpt lat="49.29592" lon="-0.10738">
        <ele>10</ele>
        <time>2017-11-26T09:56:42Z</time>
      </trkpt>
      <trkpt lat="49.29591" lon="-0.10748">
        <ele>10</ele>
        <time>2017-11-26T09:56:48Z</time>
      </trkpt>
      <trkpt lat="49.29588" lon="-0.10756">
        <ele>10</ele>
        <time>2017-11-26T09:56:54Z</time>
      </trkpt>
      <trkpt lat="49.29587" lon="-0.10763">
        <ele>10</ele>
        <time>2017-11-26T09:56:59Z</time>
      </trkpt>
      <trkpt lat="49.29585" lon="-0.10771">
        <ele>10</ele>
        <time>2017-11-26T09:57:04Z</time>
      </trkpt>
      <trkpt lat="49.29584" lon="-0.10779">
        <ele>10</ele>
        <time>2017-11-26T09:57:09Z</time>
      </trkpt>
      <trkpt lat="49.29582" lon="-0.10786">
        <ele>10</ele>
        <time>2017-11-26T09:57:14Z</time>
      </trkpt>
      <trkpt lat="49.29579" lon="-0.10795">
        <ele>11</ele>
        <time>2017-11-26T09:57:20Z</time>
      </trkpt>
      <trkpt lat="49.29577" lon="-0.10803">
        <ele>11</ele>
        <time>2017-11-26T09:57:26Z</time>
      </trkpt>
      <trkpt lat="49.29575" lon="-0.10812">
        <ele>11</ele>
        <time>2017-11-26T09:57:32Z</time>
      </trkpt>
      <trkpt lat="49.29571" lon="-0.10819">
        <ele>11</ele>
        <time>2017-11-26T09:57:38Z</time>
      </trkpt>
      <trkpt lat="49.2957" lon="-0.10827">
        <ele>11</ele>
        <time>2017-11-26T09:57:43Z</time>
      </trkpt>
      <trkpt lat="49.29568" lon="-0.10835">
        <ele>11</ele>
        <time>2017-11-26T09:57:49Z</time>
      </trkpt>
      <trkpt lat="49.29566" lon="-0.10843">
        <ele>11</ele>
        <time>2017-11-26T09:57:54Z</time>
      </trkpt>
      <trkpt lat="49.29565" lon="-0.1085">
        <ele>11</ele>
        <time>2017-11-26T09:57:59Z</time>
      </trkpt>
      <trkpt lat="49.29563" lon="-0.10859">
        <ele>11</ele>
        <time>2017-11-26T09:58:05Z</time>
      </trkpt>
      <trkpt lat="49.29562" lon="-0.10868">
        <ele>11</ele>
        <time>2017-11-26T09:58:11Z</time>
      </trkpt>
      <trkpt lat="49.29562" lon="-0.10876">
        <ele>10</ele>
        <time>2017-11-26T09:58:16Z</time>
      </trkpt>
      <trkpt lat="49.2956" lon="-0.10892">
        <ele>10</ele>
        <time>2017-11-26T09:58:23Z</time>
      </trkpt>
      <trkpt lat="49.29557" lon="-0.109">
        <ele>10</ele>
        <time>2017-11-26T09:58:29Z</time>
      </trkpt>
      <trkpt lat="49.29556" lon="-0.10909">
        <ele>10</ele>
        <time>2017-11-26T09:58:34Z</time>
      </trkpt>
      <trkpt lat="49.29554" lon="-0.10917">
        <ele>10</ele>
        <time>2017-11-26T09:58:39Z</time>
      </trkpt>
      <trkpt lat="49.29552" lon="-0.10926">
        <ele>10</ele>
        <time>2017-11-26T09:58:45Z</time>
      </trkpt>
      <trkpt lat="49.29551" lon="-0.10934">
        <ele>10</ele>
        <time>2017-11-26T09:58:50Z</time>
      </trkpt>
      <trkpt lat="49.29549" lon="-0.10942">
        <ele>10</ele>
        <time>2017-11-26T09:58:55Z</time>
      </trkpt>
      <trkpt lat="49.29547" lon="-0.1095">
        <ele>10</ele>
        <time>2017-11-26T09:59:01Z</time>
      </trkpt>
      <trkpt lat="49.29545" lon="-0.10959">
        <ele>9</ele>
        <time>2017-11-26T09:59:06Z</time>
      </trkpt>
      <trkpt lat="49.29544" lon="-0.10967">
        <ele>9</ele>
        <time>2017-11-26T09:59:11Z</time>
      </trkpt>
      <trkpt lat="49.29542" lon="-0.10975">
        <ele>9</ele>
        <time>2017-11-26T09:59:16Z</time>
      </trkpt>
      <trkpt lat="49.29541" lon="-0.10984">
        <ele>9</ele>
        <time>2017-11-26T09:59:21Z</time>
      </trkpt>
      <trkpt lat="49.29539" lon="-0.10993">
        <ele>9</ele>
        <time>2017-11-26T09:59:26Z</time>
      </trkpt>
      <trkpt lat="49.29538" lon="-0.11001">
        <ele>8</ele>
        <time>2017-11-26T09:59:31Z</time>
      </trkpt>
      <trkpt lat="49.29536" lon="-0.11009">
        <ele>8</ele>
        <time>2017-11-26T09:59:36Z</time>
      </trkpt>
      <trkpt lat="49.29535" lon="-0.11017">
        <ele>8</ele>
        <time>2017-11-26T09:59:41Z</time>
      </trkpt>
      <trkpt lat="49.29533" lon="-0.11027">
        <ele>8</ele>
        <time>2017-11-26T09:59:47Z</time>
      </trkpt>
      <trkpt lat="49.2953" lon="-0.11036">
        <ele>8</ele>
        <time>2017-11-26T09:59:53Z</time>
      </trkpt>
      <trkpt lat="49.29529" lon="-0.11045">
        <ele>8</ele>
        <time>2017-11-26T09:59:59Z</time>
      </trkpt>
      <trkpt lat="49.29527" lon="-0.11054">
        <ele>8</ele>
        <time>2017-11-26T10:00:04Z</time>
      </trkpt>
      <trkpt lat="49.29525" lon="-0.11063">
        <ele>8</ele>
        <time>2017-11-26T10:00:09Z</time>
      </trkpt>
      <trkpt lat="49.29523" lon="-0.11072">
        <ele>8</ele>
        <time>2017-11-26T10:00:15Z</time>
      </trkpt>
      <trkpt lat="49.29522" lon="-0.1108">
        <ele>7</ele>
        <time>2017-11-26T10:00:20Z</time>
      </trkpt>
      <trkpt lat="49.2952" lon="-0.11088">
        <ele>7</ele>
        <time>2017-11-26T10:00:25Z</time>
      </trkpt>
      <trkpt lat="49.29517" lon="-0.11097">
        <ele>7</ele>
        <time>2017-11-26T10:00:31Z</time>
      </trkpt>
      <trkpt lat="49.29515" lon="-0.11106">
        <ele>6</ele>
        <time>2017-11-26T10:00:37Z</time>
      </trkpt>
      <trkpt lat="49.29513" lon="-0.11116">
        <ele>6</ele>
        <time>2017-11-26T10:00:43Z</time>
      </trkpt>
      <trkpt lat="49.29511" lon="-0.11123">
        <ele>6</ele>
        <time>2017-11-26T10:00:48Z</time>
      </trkpt>
      <trkpt lat="49.29509" lon="-0.11131">
        <ele>6</ele>
        <time>2017-11-26T10:00:53Z</time>
      </trkpt>
      <trkpt lat="49.29507" lon="-0.11137">
        <ele>6</ele>
        <time>2017-11-26T10:00:59Z</time>
      </trkpt>
      <trkpt lat="49.29504" lon="-0.11139">
        <ele>6</ele>
        <time>2017-11-26T10:01:05Z</time>
      </trkpt>
      <trkpt lat="49.29502" lon="-0.11158">
        <ele>5</ele>
        <time>2017-11-26T10:01:11Z</time>
      </trkpt>
      <trkpt lat="49.29501" lon="-0.11169">
        <ele>5</ele>
        <time>2017-11-26T10:01:16Z</time>
      </trkpt>
      <trkpt lat="49.29499" lon="-0.11179">
        <ele>5</ele>
        <time>2017-11-26T10:01:21Z</time>
      </trkpt>
      <trkpt lat="49.29497" lon="-0.1119">
        <ele>6</ele>
        <time>2017-11-26T10:01:26Z</time>
      </trkpt>
      <trkpt lat="49.29495" lon="-0.11201">
        <ele>6</ele>
        <time>2017-11-26T10:01:32Z</time>
      </trkpt>
      <trkpt lat="49.29493" lon="-0.11209">
        <ele>6</ele>
        <time>2017-11-26T10:01:38Z</time>
      </trkpt>
      <trkpt lat="49.29491" lon="-0.11218">
        <ele>6</ele>
        <time>2017-11-26T10:01:44Z</time>
      </trkpt>
      <trkpt lat="49.29489" lon="-0.11226">
        <ele>7</ele>
        <time>2017-11-26T10:01:49Z</time>
      </trkpt>
      <trkpt lat="49.29488" lon="-0.11236">
        <ele>7</ele>
        <time>2017-11-26T10:01:54Z</time>
      </trkpt>
      <trkpt lat="49.29486" lon="-0.11245">
        <ele>7</ele>
        <time>2017-11-26T10:02:00Z</time>
      </trkpt>
      <trkpt lat="49.29485" lon="-0.11254">
        <ele>8</ele>
        <time>2017-11-26T10:02:06Z</time>
      </trkpt>
      <trkpt lat="49.29485" lon="-0.11264">
        <ele>8</ele>
        <time>2017-11-26T10:02:11Z</time>
      </trkpt>
      <trkpt lat="49.29484" lon="-0.11273">
        <ele>8</ele>
        <time>2017-11-26T10:02:17Z</time>
      </trkpt>
      <trkpt lat="49.29481" lon="-0.11282">
        <ele>8</ele>
        <time>2017-11-26T10:02:22Z</time>
      </trkpt>
      <trkpt lat="49.29479" lon="-0.11289">
        <ele>8</ele>
        <time>2017-11-26T10:02:27Z</time>
      </trkpt>
      <trkpt lat="49.2948" lon="-0.11291">
        <ele>8</ele>
        <time>2017-11-26T10:02:34Z</time>
      </trkpt>
      <trkpt lat="49.29479" lon="-0.11293">
        <ele>9</ele>
        <time>2017-11-26T10:02:40Z</time>
      </trkpt>
      <trkpt lat="49.29477" lon="-0.113">
        <ele>9</ele>
        <time>2017-11-26T10:02:46Z</time>
      </trkpt>
      <trkpt lat="49.29474" lon="-0.11308">
        <ele>9</ele>
        <time>2017-11-26T10:02:51Z</time>
      </trkpt>
      <trkpt lat="49.2947" lon="-0.11315">
        <ele>9</ele>
        <time>2017-11-26T10:02:56Z</time>
      </trkpt>
      <trkpt lat="49.29466" lon="-0.11326">
        <ele>9</ele>
        <time>2017-11-26T10:03:02Z</time>
      </trkpt>
      <trkpt lat="49.29465" lon="-0.11336">
        <ele>9</ele>
        <time>2017-11-26T10:03:07Z</time>
      </trkpt>
      <trkpt lat="49.29464" lon="-0.11346">
        <ele>9</ele>
        <time>2017-11-26T10:03:12Z</time>
      </trkpt>
      <trkpt lat="49.29462" lon="-0.11355">
        <ele>9</ele>
        <time>2017-11-26T10:03:18Z</time>
      </trkpt>
      <trkpt lat="49.2946" lon="-0.11363">
        <ele>9</ele>
        <time>2017-11-26T10:03:23Z</time>
      </trkpt>
      <trkpt lat="49.29458" lon="-0.11371">
        <ele>9</ele>
        <time>2017-11-26T10:03:28Z</time>
      </trkpt>
      <trkpt lat="49.29455" lon="-0.11379">
        <ele>9</ele>
        <time>2017-11-26T10:03:33Z</time>
      </trkpt>
      <trkpt lat="49.29451" lon="-0.11388">
        <ele>9</ele>
        <time>2017-11-26T10:03:39Z</time>
      </trkpt>
      <trkpt lat="49.2945" lon="-0.11405">
        <ele>9</ele>
        <time>2017-11-26T10:03:48Z</time>
      </trkpt>
      <trkpt lat="49.29448" lon="-0.11413">
        <ele>9</ele>
        <time>2017-11-26T10:03:53Z</time>
      </trkpt>
      <trkpt lat="49.29446" lon="-0.11423">
        <ele>9</ele>
        <time>2017-11-26T10:03:59Z</time>
      </trkpt>
      <trkpt lat="49.29445" lon="-0.1143">
        <ele>9</ele>
        <time>2017-11-26T10:04:04Z</time>
      </trkpt>
      <trkpt lat="49.29442" lon="-0.11441">
        <ele>9</ele>
        <time>2017-11-26T10:04:10Z</time>
      </trkpt>
      <trkpt lat="49.2944" lon="-0.1145">
        <ele>9</ele>
        <time>2017-11-26T10:04:15Z</time>
      </trkpt>
      <trkpt lat="49.29436" lon="-0.11456">
        <ele>9</ele>
        <time>2017-11-26T10:04:20Z</time>
      </trkpt>
      <trkpt lat="49.29431" lon="-0.1146">
        <ele>9</ele>
        <time>2017-11-26T10:04:25Z</time>
      </trkpt>
      <trkpt lat="49.2942" lon="-0.11456">
        <ele>9</ele>
        <time>2017-11-26T10:04:36Z</time>
      </trkpt>
      <trkpt lat="49.29414" lon="-0.11452">
        <ele>9</ele>
        <time>2017-11-26T10:04:46Z</time>
      </trkpt>
      <trkpt lat="49.29412" lon="-0.11447">
        <ele>9</ele>
        <time>2017-11-26T10:04:52Z</time>
      </trkpt>
      <trkpt lat="49.29415" lon="-0.1145">
        <ele>9</ele>
        <time>2017-11-26T10:05:04Z</time>
      </trkpt>
      <trkpt lat="49.29419" lon="-0.11444">
        <ele>9</ele>
        <time>2017-11-26T10:05:10Z</time>
      </trkpt>
      <trkpt lat="49.29424" lon="-0.11443">
        <ele>9</ele>
        <time>2017-11-26T10:05:16Z</time>
      </trkpt>
      <trkpt lat="49.29427" lon="-0.11443">
        <ele>9</ele>
        <time>2017-11-26T10:05:21Z</time>
      </trkpt>
      <trkpt lat="49.29421" lon="-0.11441">
        <ele>9</ele>
        <time>2017-11-26T10:05:27Z</time>
      </trkpt>
      <trkpt lat="49.29417" lon="-0.11438">
        <ele>9</ele>
        <time>2017-11-26T10:05:33Z</time>
      </trkpt>
      <trkpt lat="49.29415" lon="-0.11435">
        <ele>9</ele>
        <time>2017-11-26T10:05:39Z</time>
      </trkpt>
      <trkpt lat="49.29415" lon="-0.11431">
        <ele>9</ele>
        <time>2017-11-26T10:05:46Z</time>
      </trkpt>
      <trkpt lat="49.29416" lon="-0.11417">
        <ele>9</ele>
        <time>2017-11-26T10:05:53Z</time>
      </trkpt>
      <trkpt lat="49.29414" lon="-0.11413">
        <ele>9</ele>
        <time>2017-11-26T10:05:58Z</time>
      </trkpt>
      <trkpt lat="49.29409" lon="-0.1141">
        <ele>9</ele>
        <time>2017-11-26T10:06:04Z</time>
      </trkpt>
      <trkpt lat="49.29406" lon="-0.1141">
        <ele>9</ele>
        <time>2017-11-26T10:06:11Z</time>
      </trkpt>
      <trkpt lat="49.29407" lon="-0.11409">
        <ele>9</ele>
        <time>2017-11-26T10:06:20Z</time>
      </trkpt>
      <trkpt lat="49.29408" lon="-0.11416">
        <ele>9</ele>
        <time>2017-11-26T10:06:27Z</time>
      </trkpt>
      <trkpt lat="49.29409" lon="-0.11419">
        <ele>9</ele>
        <time>2017-11-26T10:06:33Z</time>
      </trkpt>
      <trkpt lat="49.29411" lon="-0.11425">
        <ele>9</ele>
        <time>2017-11-26T10:06:40Z</time>
      </trkpt>
      <trkpt lat="49.2942" lon="-0.11436">
        <ele>9</ele>
        <time>2017-11-26T10:06:50Z</time>
      </trkpt>
      <trkpt lat="49.29417" lon="-0.11442">
        <ele>9</ele>
        <time>2017-11-26T10:06:55Z</time>
      </trkpt>
      <trkpt lat="49.29413" lon="-0.11441">
        <ele>9</ele>
        <time>2017-11-26T10:07:00Z</time>
      </trkpt>
      <trkpt lat="49.2941" lon="-0.11436">
        <ele>9</ele>
        <time>2017-11-26T10:07:05Z</time>
      </trkpt>
      <trkpt lat="49.29407" lon="-0.11434">
        <ele>9</ele>
        <time>2017-11-26T10:07:15Z</time>
      </trkpt>
      <trkpt lat="49.294" lon="-0.11441">
        <ele>9</ele>
        <time>2017-11-26T10:07:21Z</time>
      </trkpt>
      <trkpt lat="49.29397" lon="-0.11437">
        <ele>9</ele>
        <time>2017-11-26T10:07:28Z</time>
      </trkpt>
      <trkpt lat="49.29397" lon="-0.11431">
        <ele>9</ele>
        <time>2017-11-26T10:07:34Z</time>
      </trkpt>
      <trkpt lat="49.29394" lon="-0.11428">
        <ele>9</ele>
        <time>2017-11-26T10:07:39Z</time>
      </trkpt>
      <trkpt lat="49.2939" lon="-0.1143">
        <ele>9</ele>
        <time>2017-11-26T10:07:48Z</time>
      </trkpt>
      <trkpt lat="49.29387" lon="-0.11436">
        <ele>9</ele>
        <time>2017-11-26T10:07:53Z</time>
      </trkpt>
      <trkpt lat="49.29388" lon="-0.11445">
        <ele>9</ele>
        <time>2017-11-26T10:07:58Z</time>
      </trkpt>
      <trkpt lat="49.29389" lon="-0.11455">
        <ele>9</ele>
        <time>2017-11-26T10:08:03Z</time>
      </trkpt>
      <trkpt lat="49.29388" lon="-0.11461">
        <ele>9</ele>
        <time>2017-11-26T10:08:08Z</time>
      </trkpt>
      <trkpt lat="49.29386" lon="-0.11467">
        <ele>9</ele>
        <time>2017-11-26T10:08:13Z</time>
      </trkpt>
      <trkpt lat="49.29385" lon="-0.11476">
        <ele>9</ele>
        <time>2017-11-26T10:08:18Z</time>
      </trkpt>
      <trkpt lat="49.29385" lon="-0.11481">
        <ele>9</ele>
        <time>2017-11-26T10:08:23Z</time>
      </trkpt>
      <trkpt lat="49.29382" lon="-0.11488">
        <ele>9</ele>
        <time>2017-11-26T10:08:29Z</time>
      </trkpt>
      <trkpt lat="49.29378" lon="-0.11495">
        <ele>9</ele>
        <time>2017-11-26T10:08:35Z</time>
      </trkpt>
      <trkpt lat="49.29374" lon="-0.11504">
        <ele>9</ele>
        <time>2017-11-26T10:08:41Z</time>
      </trkpt>
      <trkpt lat="49.29374" lon="-0.11511">
        <ele>9</ele>
        <time>2017-11-26T10:08:46Z</time>
      </trkpt>
      <trkpt lat="49.2937" lon="-0.11517">
        <ele>9</ele>
        <time>2017-11-26T10:08:52Z</time>
      </trkpt>
      <trkpt lat="49.29365" lon="-0.11522">
        <ele>9</ele>
        <time>2017-11-26T10:08:58Z</time>
      </trkpt>
      <trkpt lat="49.29362" lon="-0.1153">
        <ele>9</ele>
        <time>2017-11-26T10:09:04Z</time>
      </trkpt>
      <trkpt lat="49.29357" lon="-0.1153">
        <ele>9</ele>
        <time>2017-11-26T10:09:09Z</time>
      </trkpt>
      <trkpt lat="49.29345" lon="-0.11525">
        <ele>9</ele>
        <time>2017-11-26T10:09:20Z</time>
      </trkpt>
      <trkpt lat="49.2934" lon="-0.11523">
        <ele>9</ele>
        <time>2017-11-26T10:09:26Z</time>
      </trkpt>
      <trkpt lat="49.29333" lon="-0.1152">
        <ele>9</ele>
        <time>2017-11-26T10:09:32Z</time>
      </trkpt>
      <trkpt lat="49.29327" lon="-0.11518">
        <ele>9</ele>
        <time>2017-11-26T10:09:38Z</time>
      </trkpt>
      <trkpt lat="49.29323" lon="-0.11515">
        <ele>9</ele>
        <time>2017-11-26T10:09:43Z</time>
      </trkpt>
      <trkpt lat="49.29317" lon="-0.11515">
        <ele>8</ele>
        <time>2017-11-26T10:09:49Z</time>
      </trkpt>
      <trkpt lat="49.29312" lon="-0.11517">
        <ele>8</ele>
        <time>2017-11-26T10:09:54Z</time>
      </trkpt>
      <trkpt lat="49.29306" lon="-0.11519">
        <ele>8</ele>
        <time>2017-11-26T10:09:59Z</time>
      </trkpt>
      <trkpt lat="49.29301" lon="-0.1152">
        <ele>8</ele>
        <time>2017-11-26T10:10:04Z</time>
      </trkpt>
      <trkpt lat="49.29297" lon="-0.11516">
        <ele>8</ele>
        <time>2017-11-26T10:10:12Z</time>
      </trkpt>
      <trkpt lat="49.29292" lon="-0.11519">
        <ele>8</ele>
        <time>2017-11-26T10:10:18Z</time>
      </trkpt>
      <trkpt lat="49.29286" lon="-0.11522">
        <ele>8</ele>
        <time>2017-11-26T10:10:24Z</time>
      </trkpt>
      <trkpt lat="49.2928" lon="-0.11522">
        <ele>8</ele>
        <time>2017-11-26T10:10:30Z</time>
      </trkpt>
      <trkpt lat="49.29274" lon="-0.11523">
        <ele>8</ele>
        <time>2017-11-26T10:10:36Z</time>
      </trkpt>
      <trkpt lat="49.2927" lon="-0.1152">
        <ele>8</ele>
        <time>2017-11-26T10:10:41Z</time>
      </trkpt>
      <trkpt lat="49.29266" lon="-0.1152">
        <ele>8</ele>
        <time>2017-11-26T10:10:46Z</time>
      </trkpt>
      <trkpt lat="49.29265" lon="-0.11525">
        <ele>8</ele>
        <time>2017-11-26T10:10:51Z</time>
      </trkpt>
      <trkpt lat="49.29264" lon="-0.11528">
        <ele>8</ele>
        <time>2017-11-26T10:10:58Z</time>
      </trkpt>
      <trkpt lat="49.29262" lon="-0.11517">
        <ele>8</ele>
        <time>2017-11-26T10:11:03Z</time>
      </trkpt>
      <trkpt lat="49.29262" lon="-0.1151">
        <ele>7</ele>
        <time>2017-11-26T10:11:09Z</time>
      </trkpt>
      <trkpt lat="49.29262" lon="-0.11497">
        <ele>7</ele>
        <time>2017-11-26T10:11:16Z</time>
      </trkpt>
      <trkpt lat="49.29263" lon="-0.11489">
        <ele>7</ele>
        <time>2017-11-26T10:11:22Z</time>
      </trkpt>
      <trkpt lat="49.29259" lon="-0.11494">
        <ele>7</ele>
        <time>2017-11-26T10:11:29Z</time>
      </trkpt>
      <trkpt lat="49.29255" lon="-0.11503">
        <ele>7</ele>
        <time>2017-11-26T10:11:36Z</time>
      </trkpt>
      <trkpt lat="49.29252" lon="-0.11513">
        <ele>7</ele>
        <time>2017-11-26T10:11:41Z</time>
      </trkpt>
      <trkpt lat="49.29251" lon="-0.11522">
        <ele>7</ele>
        <time>2017-11-26T10:11:46Z</time>
      </trkpt>
      <trkpt lat="49.29248" lon="-0.1153">
        <ele>6</ele>
        <time>2017-11-26T10:11:51Z</time>
      </trkpt>
      <trkpt lat="49.29246" lon="-0.1154">
        <ele>6</ele>
        <time>2017-11-26T10:11:57Z</time>
      </trkpt>
      <trkpt lat="49.29244" lon="-0.11549">
        <ele>6</ele>
        <time>2017-11-26T10:12:02Z</time>
      </trkpt>
      <trkpt lat="49.29242" lon="-0.11558">
        <ele>6</ele>
        <time>2017-11-26T10:12:07Z</time>
      </trkpt>
      <trkpt lat="49.29238" lon="-0.11566">
        <ele>6</ele>
        <time>2017-11-26T10:12:13Z</time>
      </trkpt>
      <trkpt lat="49.29232" lon="-0.1157">
        <ele>6</ele>
        <time>2017-11-26T10:12:19Z</time>
      </trkpt>
      <trkpt lat="49.29227" lon="-0.11575">
        <ele>6</ele>
        <time>2017-11-26T10:12:31Z</time>
      </trkpt>
      <trkpt lat="49.29216" lon="-0.1157">
        <ele>6</ele>
        <time>2017-11-26T10:12:36Z</time>
      </trkpt>
      <trkpt lat="49.29208" lon="-0.11575">
        <ele>6</ele>
        <time>2017-11-26T10:12:42Z</time>
      </trkpt>
      <trkpt lat="49.29202" lon="-0.11577">
        <ele>6</ele>
        <time>2017-11-26T10:12:47Z</time>
      </trkpt>
      <trkpt lat="49.29197" lon="-0.11581">
        <ele>6</ele>
        <time>2017-11-26T10:12:54Z</time>
      </trkpt>
      <trkpt lat="49.29194" lon="-0.11584">
        <ele>6</ele>
        <time>2017-11-26T10:13:00Z</time>
      </trkpt>
      <trkpt lat="49.29192" lon="-0.11585">
        <ele>6</ele>
        <time>2017-11-26T10:13:05Z</time>
      </trkpt>
      <trkpt lat="49.29189" lon="-0.11587">
        <ele>6</ele>
        <time>2017-11-26T10:13:10Z</time>
      </trkpt>
      <trkpt lat="49.29186" lon="-0.11588">
        <ele>6</ele>
        <time>2017-11-26T10:13:17Z</time>
      </trkpt>
      <trkpt lat="49.29182" lon="-0.11586">
        <ele>6</ele>
        <time>2017-11-26T10:13:22Z</time>
      </trkpt>
      <trkpt lat="49.29177" lon="-0.11586">
        <ele>6</ele>
        <time>2017-11-26T10:13:28Z</time>
      </trkpt>
      <trkpt lat="49.29169" lon="-0.11586">
        <ele>6</ele>
        <time>2017-11-26T10:13:33Z</time>
      </trkpt>
      <trkpt lat="49.29164" lon="-0.11586">
        <ele>6</ele>
        <time>2017-11-26T10:13:38Z</time>
      </trkpt>
      <trkpt lat="49.29158" lon="-0.11589">
        <ele>6</ele>
        <time>2017-11-26T10:13:44Z</time>
      </trkpt>
      <trkpt lat="49.29155" lon="-0.11592">
        <ele>6</ele>
        <time>2017-11-26T10:13:49Z</time>
      </trkpt>
      <trkpt lat="49.29152" lon="-0.11595">
        <ele>6</ele>
        <time>2017-11-26T10:13:54Z</time>
      </trkpt>
      <trkpt lat="49.29147" lon="-0.11598">
        <ele>6</ele>
        <time>2017-11-26T10:14:00Z</time>
      </trkpt>
      <trkpt lat="49.29135" lon="-0.11595">
        <ele>6</ele>
        <time>2017-11-26T10:14:06Z</time>
      </trkpt>
      <trkpt lat="49.29131" lon="-0.11596">
        <ele>6</ele>
        <time>2017-11-26T10:14:11Z</time>
      </trkpt>
      <trkpt lat="49.29125" lon="-0.11597">
        <ele>5</ele>
        <time>2017-11-26T10:14:17Z</time>
      </trkpt>
      <trkpt lat="49.29119" lon="-0.11597">
        <ele>5</ele>
        <time>2017-11-26T10:14:22Z</time>
      </trkpt>
      <trkpt lat="49.29114" lon="-0.11599">
        <ele>5</ele>
        <time>2017-11-26T10:14:28Z</time>
      </trkpt>
      <trkpt lat="49.2911" lon="-0.11601">
        <ele>5</ele>
        <time>2017-11-26T10:14:34Z</time>
      </trkpt>
      <trkpt lat="49.29105" lon="-0.11602">
        <ele>5</ele>
        <time>2017-11-26T10:14:40Z</time>
      </trkpt>
      <trkpt lat="49.29096" lon="-0.11601">
        <ele>5</ele>
        <time>2017-11-26T10:14:45Z</time>
      </trkpt>
      <trkpt lat="49.29091" lon="-0.11602">
        <ele>5</ele>
        <time>2017-11-26T10:14:51Z</time>
      </trkpt>
      <trkpt lat="49.29086" lon="-0.11603">
        <ele>5</ele>
        <time>2017-11-26T10:14:56Z</time>
      </trkpt>
      <trkpt lat="49.29082" lon="-0.11602">
        <ele>5</ele>
        <time>2017-11-26T10:15:01Z</time>
      </trkpt>
      <trkpt lat="49.29077" lon="-0.11597">
        <ele>5</ele>
        <time>2017-11-26T10:15:07Z</time>
      </trkpt>
      <trkpt lat="49.29069" lon="-0.11601">
        <ele>5</ele>
        <time>2017-11-26T10:15:12Z</time>
      </trkpt>
      <trkpt lat="49.29061" lon="-0.11607">
        <ele>5</ele>
        <time>2017-11-26T10:15:18Z</time>
      </trkpt>
      <trkpt lat="49.29055" lon="-0.11607">
        <ele>5</ele>
        <time>2017-11-26T10:15:24Z</time>
      </trkpt>
      <trkpt lat="49.29048" lon="-0.11604">
        <ele>5</ele>
        <time>2017-11-26T10:15:29Z</time>
      </trkpt>
      <trkpt lat="49.29043" lon="-0.11604">
        <ele>5</ele>
        <time>2017-11-26T10:15:34Z</time>
      </trkpt>
      <trkpt lat="49.29037" lon="-0.11603">
        <ele>6</ele>
        <time>2017-11-26T10:15:40Z</time>
      </trkpt>
      <trkpt lat="49.2903" lon="-0.11605">
        <ele>6</ele>
        <time>2017-11-26T10:15:46Z</time>
      </trkpt>
      <trkpt lat="49.29024" lon="-0.11607">
        <ele>6</ele>
        <time>2017-11-26T10:15:52Z</time>
      </trkpt>
      <trkpt lat="49.29018" lon="-0.11609">
        <ele>6</ele>
        <time>2017-11-26T10:15:58Z</time>
      </trkpt>
      <trkpt lat="49.2901" lon="-0.11609">
        <ele>6</ele>
        <time>2017-11-26T10:16:04Z</time>
      </trkpt>
      <trkpt lat="49.29004" lon="-0.11609">
        <ele>6</ele>
        <time>2017-11-26T10:16:10Z</time>
      </trkpt>
      <trkpt lat="49.28997" lon="-0.11612">
        <ele>6</ele>
        <time>2017-11-26T10:16:16Z</time>
      </trkpt>
      <trkpt lat="49.2899" lon="-0.11615">
        <ele>6</ele>
        <time>2017-11-26T10:16:22Z</time>
      </trkpt>
      <trkpt lat="49.28984" lon="-0.11614">
        <ele>6</ele>
        <time>2017-11-26T10:16:27Z</time>
      </trkpt>
      <trkpt lat="49.28978" lon="-0.11613">
        <ele>6</ele>
        <time>2017-11-26T10:16:32Z</time>
      </trkpt>
      <trkpt lat="49.28969" lon="-0.11613">
        <ele>6</ele>
        <time>2017-11-26T10:16:37Z</time>
      </trkpt>
      <trkpt lat="49.2896" lon="-0.11612">
        <ele>6</ele>
        <time>2017-11-26T10:16:42Z</time>
      </trkpt>
      <trkpt lat="49.28951" lon="-0.11617">
        <ele>6</ele>
        <time>2017-11-26T10:16:47Z</time>
      </trkpt>
      <trkpt lat="49.28944" lon="-0.1162">
        <ele>6</ele>
        <time>2017-11-26T10:16:53Z</time>
      </trkpt>
      <trkpt lat="49.28939" lon="-0.11621">
        <ele>6</ele>
        <time>2017-11-26T10:16:58Z</time>
      </trkpt>
      <trkpt lat="49.28933" lon="-0.11621">
        <ele>6</ele>
        <time>2017-11-26T10:17:04Z</time>
      </trkpt>
      <trkpt lat="49.28929" lon="-0.11621">
        <ele>6</ele>
        <time>2017-11-26T10:17:09Z</time>
      </trkpt>
      <trkpt lat="49.28924" lon="-0.11625">
        <ele>6</ele>
        <time>2017-11-26T10:17:15Z</time>
      </trkpt>
      <trkpt lat="49.2892" lon="-0.11627">
        <ele>6</ele>
        <time>2017-11-26T10:17:21Z</time>
      </trkpt>
      <trkpt lat="49.28915" lon="-0.11628">
        <ele>6</ele>
        <time>2017-11-26T10:17:26Z</time>
      </trkpt>
      <trkpt lat="49.28909" lon="-0.11629">
        <ele>6</ele>
        <time>2017-11-26T10:17:31Z</time>
      </trkpt>
      <trkpt lat="49.28905" lon="-0.11629">
        <ele>6</ele>
        <time>2017-11-26T10:17:38Z</time>
      </trkpt>
      <trkpt lat="49.289" lon="-0.11628">
        <ele>6</ele>
        <time>2017-11-26T10:17:44Z</time>
      </trkpt>
      <trkpt lat="49.28897" lon="-0.11628">
        <ele>6</ele>
        <time>2017-11-26T10:17:49Z</time>
      </trkpt>
      <trkpt lat="49.28896" lon="-0.11627">
        <ele>6</ele>
        <time>2017-11-26T10:17:54Z</time>
      </trkpt>
      <trkpt lat="49.28891" lon="-0.11634">
        <ele>6</ele>
        <time>2017-11-26T10:18:00Z</time>
      </trkpt>
      <trkpt lat="49.28895" lon="-0.11634">
        <ele>6</ele>
        <time>2017-11-26T10:18:06Z</time>
      </trkpt>
      <trkpt lat="49.289" lon="-0.11624">
        <ele>6</ele>
        <time>2017-11-26T10:18:12Z</time>
      </trkpt>
      <trkpt lat="49.28904" lon="-0.11622">
        <ele>6</ele>
        <time>2017-11-26T10:18:18Z</time>
      </trkpt>
      <trkpt lat="49.28907" lon="-0.11621">
        <ele>6</ele>
        <time>2017-11-26T10:18:23Z</time>
      </trkpt>
      <trkpt lat="49.28912" lon="-0.11625">
        <ele>6</ele>
        <time>2017-11-26T10:18:28Z</time>
      </trkpt>
      <trkpt lat="49.28919" lon="-0.11626">
        <ele>6</ele>
        <time>2017-11-26T10:18:33Z</time>
      </trkpt>
      <trkpt lat="49.28925" lon="-0.11628">
        <ele>6</ele>
        <time>2017-11-26T10:18:39Z</time>
      </trkpt>
      <trkpt lat="49.2893" lon="-0.11626">
        <ele>6</ele>
        <time>2017-11-26T10:18:44Z</time>
      </trkpt>
      <trkpt lat="49.28936" lon="-0.11623">
        <ele>6</ele>
        <time>2017-11-26T10:18:51Z</time>
      </trkpt>
      <trkpt lat="49.28938" lon="-0.11612">
        <ele>6</ele>
        <time>2017-11-26T10:18:56Z</time>
      </trkpt>
      <trkpt lat="49.28939" lon="-0.11603">
        <ele>6</ele>
        <time>2017-11-26T10:19:01Z</time>
      </trkpt>
      <trkpt lat="49.2894" lon="-0.11594">
        <ele>6</ele>
        <time>2017-11-26T10:19:06Z</time>
      </trkpt>
      <trkpt lat="49.28939" lon="-0.11592">
        <ele>6</ele>
        <time>2017-11-26T10:19:12Z</time>
      </trkpt>
      <trkpt lat="49.2894" lon="-0.11585">
        <ele>6</ele>
        <time>2017-11-26T10:19:17Z</time>
      </trkpt>
      <trkpt lat="49.28939" lon="-0.11575">
        <ele>6</ele>
        <time>2017-11-26T10:19:23Z</time>
      </trkpt>
      <trkpt lat="49.2894" lon="-0.11568">
        <ele>6</ele>
        <time>2017-11-26T10:19:28Z</time>
      </trkpt>
      <trkpt lat="49.28941" lon="-0.1156">
        <ele>6</ele>
        <time>2017-11-26T10:19:33Z</time>
      </trkpt>
      <trkpt lat="49.2894" lon="-0.11551">
        <ele>6</ele>
        <time>2017-11-26T10:19:38Z</time>
      </trkpt>
      <trkpt lat="49.28941" lon="-0.11543">
        <ele>6</ele>
        <time>2017-11-26T10:19:44Z</time>
      </trkpt>
      <trkpt lat="49.28941" lon="-0.11535">
        <ele>6</ele>
        <time>2017-11-26T10:19:49Z</time>
      </trkpt>
      <trkpt lat="49.2894" lon="-0.11526">
        <ele>6</ele>
        <time>2017-11-26T10:19:54Z</time>
      </trkpt>
      <trkpt lat="49.28941" lon="-0.11516">
        <ele>6</ele>
        <time>2017-11-26T10:20:00Z</time>
      </trkpt>
      <trkpt lat="49.28943" lon="-0.11509">
        <ele>6</ele>
        <time>2017-11-26T10:20:05Z</time>
      </trkpt>
      <trkpt lat="49.28942" lon="-0.11499">
        <ele>6</ele>
        <time>2017-11-26T10:20:10Z</time>
      </trkpt>
      <trkpt lat="49.28942" lon="-0.11491">
        <ele>6</ele>
        <time>2017-11-26T10:20:15Z</time>
      </trkpt>
      <trkpt lat="49.28943" lon="-0.11483">
        <ele>6</ele>
        <time>2017-11-26T10:20:21Z</time>
      </trkpt>
      <trkpt lat="49.28944" lon="-0.1148">
        <ele>6</ele>
        <time>2017-11-26T10:20:26Z</time>
      </trkpt>
      <trkpt lat="49.28946" lon="-0.11476">
        <ele>6</ele>
        <time>2017-11-26T10:20:32Z</time>
      </trkpt>
      <trkpt lat="49.28949" lon="-0.11474">
        <ele>6</ele>
        <time>2017-11-26T10:20:37Z</time>
      </trkpt>
      <trkpt lat="49.28951" lon="-0.11467">
        <ele>6</ele>
        <time>2017-11-26T10:20:43Z</time>
      </trkpt>
      <trkpt lat="49.28952" lon="-0.11459">
        <ele>6</ele>
        <time>2017-11-26T10:20:48Z</time>
      </trkpt>
      <trkpt lat="49.28954" lon="-0.11452">
        <ele>5</ele>
        <time>2017-11-26T10:20:55Z</time>
      </trkpt>
      <trkpt lat="49.28955" lon="-0.11444">
        <ele>5</ele>
        <time>2017-11-26T10:21:01Z</time>
      </trkpt>
      <trkpt lat="49.28954" lon="-0.11438">
        <ele>5</ele>
        <time>2017-11-26T10:21:08Z</time>
      </trkpt>
      <trkpt lat="49.28956" lon="-0.11427">
        <ele>5</ele>
        <time>2017-11-26T10:21:13Z</time>
      </trkpt>
      <trkpt lat="49.28948" lon="-0.11421">
        <ele>5</ele>
        <time>2017-11-26T10:21:19Z</time>
      </trkpt>
      <trkpt lat="49.28948" lon="-0.11426">
        <ele>5</ele>
        <time>2017-11-26T10:21:28Z</time>
      </trkpt>
      <trkpt lat="49.2894" lon="-0.11428">
        <ele>5</ele>
        <time>2017-11-26T10:21:42Z</time>
      </trkpt>
      <trkpt lat="49.28934" lon="-0.11422">
        <ele>5</ele>
        <time>2017-11-26T10:21:52Z</time>
      </trkpt>
      <trkpt lat="49.28932" lon="-0.11417">
        <ele>5</ele>
        <time>2017-11-26T10:21:57Z</time>
      </trkpt>
      <trkpt lat="49.28926" lon="-0.11408">
        <ele>5</ele>
        <time>2017-11-26T10:22:03Z</time>
      </trkpt>
      <trkpt lat="49.28919" lon="-0.11409">
        <ele>5</ele>
        <time>2017-11-26T10:22:09Z</time>
      </trkpt>
      <trkpt lat="49.28914" lon="-0.11409">
        <ele>5</ele>
        <time>2017-11-26T10:22:14Z</time>
      </trkpt>
      <trkpt lat="49.28911" lon="-0.11408">
        <ele>5</ele>
        <time>2017-11-26T10:22:19Z</time>
      </trkpt>
      <trkpt lat="49.28905" lon="-0.11408">
        <ele>5</ele>
        <time>2017-11-26T10:22:26Z</time>
      </trkpt>
      <trkpt lat="49.28901" lon="-0.11408">
        <ele>5</ele>
        <time>2017-11-26T10:22:32Z</time>
      </trkpt>
      <trkpt lat="49.28895" lon="-0.11411">
        <ele>5</ele>
        <time>2017-11-26T10:22:37Z</time>
      </trkpt>
      <trkpt lat="49.28893" lon="-0.11416">
        <ele>5</ele>
        <time>2017-11-26T10:22:43Z</time>
      </trkpt>
      <trkpt lat="49.28891" lon="-0.11424">
        <ele>5</ele>
        <time>2017-11-26T10:22:50Z</time>
      </trkpt>
      <trkpt lat="49.2889" lon="-0.11428">
        <ele>5</ele>
        <time>2017-11-26T10:22:55Z</time>
      </trkpt>
      <trkpt lat="49.28889" lon="-0.11418">
        <ele>5</ele>
        <time>2017-11-26T10:23:01Z</time>
      </trkpt>
      <trkpt lat="49.28891" lon="-0.11412">
        <ele>5</ele>
        <time>2017-11-26T10:23:09Z</time>
      </trkpt>
      <trkpt lat="49.28894" lon="-0.11412">
        <ele>5</ele>
        <time>2017-11-26T10:23:14Z</time>
      </trkpt>
      <trkpt lat="49.28897" lon="-0.11412">
        <ele>5</ele>
        <time>2017-11-26T10:23:19Z</time>
      </trkpt>
      <trkpt lat="49.28903" lon="-0.11414">
        <ele>5</ele>
        <time>2017-11-26T10:23:26Z</time>
      </trkpt>
      <trkpt lat="49.28907" lon="-0.11416">
        <ele>5</ele>
        <time>2017-11-26T10:23:31Z</time>
      </trkpt>
      <trkpt lat="49.28908" lon="-0.11419">
        <ele>5</ele>
        <time>2017-11-26T10:23:38Z</time>
      </trkpt>
      <trkpt lat="49.28912" lon="-0.11421">
        <ele>5</ele>
        <time>2017-11-26T10:23:43Z</time>
      </trkpt>
      <trkpt lat="49.2893" lon="-0.11434">
        <ele>5</ele>
        <time>2017-11-26T10:24:05Z</time>
      </trkpt>
      <trkpt lat="49.28933" lon="-0.11433">
        <ele>5</ele>
        <time>2017-11-26T10:24:19Z</time>
      </trkpt>
      <trkpt lat="49.28935" lon="-0.11432">
        <ele>5</ele>
        <time>2017-11-26T10:24:24Z</time>
      </trkpt>
      <trkpt lat="49.28939" lon="-0.11433">
        <ele>5</ele>
        <time>2017-11-26T10:24:30Z</time>
      </trkpt>
      <trkpt lat="49.28943" lon="-0.11447">
        <ele>5</ele>
        <time>2017-11-26T10:24:37Z</time>
      </trkpt>
      <trkpt lat="49.28943" lon="-0.11455">
        <ele>5</ele>
        <time>2017-11-26T10:24:43Z</time>
      </trkpt>
      <trkpt lat="49.28943" lon="-0.11462">
        <ele>6</ele>
        <time>2017-11-26T10:24:49Z</time>
      </trkpt>
      <trkpt lat="49.28943" lon="-0.1147">
        <ele>6</ele>
        <time>2017-11-26T10:24:54Z</time>
      </trkpt>
      <trkpt lat="49.28945" lon="-0.1148">
        <ele>6</ele>
        <time>2017-11-26T10:25:00Z</time>
      </trkpt>
      <trkpt lat="49.28944" lon="-0.1149">
        <ele>6</ele>
        <time>2017-11-26T10:25:05Z</time>
      </trkpt>
      <trkpt lat="49.28944" lon="-0.11498">
        <ele>6</ele>
        <time>2017-11-26T10:25:10Z</time>
      </trkpt>
      <trkpt lat="49.28944" lon="-0.11506">
        <ele>6</ele>
        <time>2017-11-26T10:25:15Z</time>
      </trkpt>
      <trkpt lat="49.28943" lon="-0.11514">
        <ele>6</ele>
        <time>2017-11-26T10:25:20Z</time>
      </trkpt>
      <trkpt lat="49.28947" lon="-0.11523">
        <ele>6</ele>
        <time>2017-11-26T10:25:26Z</time>
      </trkpt>
      <trkpt lat="49.28946" lon="-0.11531">
        <ele>6</ele>
        <time>2017-11-26T10:25:31Z</time>
      </trkpt>
      <trkpt lat="49.28946" lon="-0.1154">
        <ele>6</ele>
        <time>2017-11-26T10:25:37Z</time>
      </trkpt>
      <trkpt lat="49.28946" lon="-0.11546">
        <ele>6</ele>
        <time>2017-11-26T10:25:42Z</time>
      </trkpt>
      <trkpt lat="49.28948" lon="-0.11553">
        <ele>6</ele>
        <time>2017-11-26T10:25:47Z</time>
      </trkpt>
      <trkpt lat="49.28948" lon="-0.11562">
        <ele>6</ele>
        <time>2017-11-26T10:25:53Z</time>
      </trkpt>
      <trkpt lat="49.28947" lon="-0.11574">
        <ele>6</ele>
        <time>2017-11-26T10:25:58Z</time>
      </trkpt>
      <trkpt lat="49.28945" lon="-0.11585">
        <ele>6</ele>
        <time>2017-11-26T10:26:03Z</time>
      </trkpt>
      <trkpt lat="49.28944" lon="-0.11594">
        <ele>6</ele>
        <time>2017-11-26T10:26:09Z</time>
      </trkpt>
      <trkpt lat="49.28949" lon="-0.11598">
        <ele>6</ele>
        <time>2017-11-26T10:26:16Z</time>
      </trkpt>
      <trkpt lat="49.28949" lon="-0.11607">
        <ele>6</ele>
        <time>2017-11-26T10:26:22Z</time>
      </trkpt>
      <trkpt lat="49.28948" lon="-0.11615">
        <ele>6</ele>
        <time>2017-11-26T10:26:28Z</time>
      </trkpt>
      <trkpt lat="49.28941" lon="-0.11617">
        <ele>6</ele>
        <time>2017-11-26T10:26:33Z</time>
      </trkpt>
      <trkpt lat="49.28935" lon="-0.11622">
        <ele>6</ele>
        <time>2017-11-26T10:26:39Z</time>
      </trkpt>
      <trkpt lat="49.28933" lon="-0.11627">
        <ele>6</ele>
        <time>2017-11-26T10:26:44Z</time>
      </trkpt>
      <trkpt lat="49.28928" lon="-0.11632">
        <ele>6</ele>
        <time>2017-11-26T10:27:08Z</time>
      </trkpt>
      <trkpt lat="49.28935" lon="-0.11632">
        <ele>6</ele>
        <time>2017-11-26T10:27:14Z</time>
      </trkpt>
      <trkpt lat="49.2894" lon="-0.11632">
        <ele>6</ele>
        <time>2017-11-26T10:27:20Z</time>
      </trkpt>
      <trkpt lat="49.28943" lon="-0.11632">
        <ele>6</ele>
        <time>2017-11-26T10:27:28Z</time>
      </trkpt>
      <trkpt lat="49.28942" lon="-0.11621">
        <ele>6</ele>
        <time>2017-11-26T10:27:33Z</time>
      </trkpt>
      <trkpt lat="49.28941" lon="-0.11614">
        <ele>6</ele>
        <time>2017-11-26T10:27:40Z</time>
      </trkpt>
      <trkpt lat="49.28944" lon="-0.11607">
        <ele>6</ele>
        <time>2017-11-26T10:27:45Z</time>
      </trkpt>
      <trkpt lat="49.28946" lon="-0.11599">
        <ele>6</ele>
        <time>2017-11-26T10:27:51Z</time>
      </trkpt>
      <trkpt lat="49.28946" lon="-0.1159">
        <ele>6</ele>
        <time>2017-11-26T10:27:57Z</time>
      </trkpt>
      <trkpt lat="49.28945" lon="-0.11579">
        <ele>6</ele>
        <time>2017-11-26T10:28:03Z</time>
      </trkpt>
      <trkpt lat="49.28945" lon="-0.11568">
        <ele>6</ele>
        <time>2017-11-26T10:28:10Z</time>
      </trkpt>
      <trkpt lat="49.28943" lon="-0.11562">
        <ele>6</ele>
        <time>2017-11-26T10:28:18Z</time>
      </trkpt>
      <trkpt lat="49.28939" lon="-0.11551">
        <ele>6</ele>
        <time>2017-11-26T10:28:24Z</time>
      </trkpt>
      <trkpt lat="49.28931" lon="-0.11547">
        <ele>6</ele>
        <time>2017-11-26T10:28:32Z</time>
      </trkpt>
      <trkpt lat="49.28923" lon="-0.11546">
        <ele>6</ele>
        <time>2017-11-26T10:28:38Z</time>
      </trkpt>
      <trkpt lat="49.28917" lon="-0.11546">
        <ele>6</ele>
        <time>2017-11-26T10:28:44Z</time>
      </trkpt>
      <trkpt lat="49.28912" lon="-0.11545">
        <ele>6</ele>
        <time>2017-11-26T10:28:50Z</time>
      </trkpt>
      <trkpt lat="49.28907" lon="-0.11543">
        <ele>6</ele>
        <time>2017-11-26T10:28:56Z</time>
      </trkpt>
      <trkpt lat="49.28899" lon="-0.11542">
        <ele>6</ele>
        <time>2017-11-26T10:29:02Z</time>
      </trkpt>
      <trkpt lat="49.28893" lon="-0.11541">
        <ele>6</ele>
        <time>2017-11-26T10:29:07Z</time>
      </trkpt>
      <trkpt lat="49.28887" lon="-0.11541">
        <ele>6</ele>
        <time>2017-11-26T10:29:12Z</time>
      </trkpt>
      <trkpt lat="49.2888" lon="-0.1154">
        <ele>6</ele>
        <time>2017-11-26T10:29:18Z</time>
      </trkpt>
      <trkpt lat="49.28874" lon="-0.11543">
        <ele>6</ele>
        <time>2017-11-26T10:29:23Z</time>
      </trkpt>
      <trkpt lat="49.28867" lon="-0.11544">
        <ele>6</ele>
        <time>2017-11-26T10:29:28Z</time>
      </trkpt>
      <trkpt lat="49.28861" lon="-0.11543">
        <ele>6</ele>
        <time>2017-11-26T10:29:33Z</time>
      </trkpt>
      <trkpt lat="49.28854" lon="-0.11541">
        <ele>6</ele>
        <time>2017-11-26T10:29:38Z</time>
      </trkpt>
      <trkpt lat="49.28848" lon="-0.11541">
        <ele>6</ele>
        <time>2017-11-26T10:29:43Z</time>
      </trkpt>
      <trkpt lat="49.28842" lon="-0.11541">
        <ele>6</ele>
        <time>2017-11-26T10:29:48Z</time>
      </trkpt>
      <trkpt lat="49.28835" lon="-0.11538">
        <ele>6</ele>
        <time>2017-11-26T10:29:54Z</time>
      </trkpt>
      <trkpt lat="49.28829" lon="-0.11537">
        <ele>5</ele>
        <time>2017-11-26T10:29:59Z</time>
      </trkpt>
      <trkpt lat="49.28824" lon="-0.11539">
        <ele>5</ele>
        <time>2017-11-26T10:30:04Z</time>
      </trkpt>
      <trkpt lat="49.28817" lon="-0.11541">
        <ele>5</ele>
        <time>2017-11-26T10:30:10Z</time>
      </trkpt>
      <trkpt lat="49.28812" lon="-0.11544">
        <ele>6</ele>
        <time>2017-11-26T10:30:16Z</time>
      </trkpt>
      <trkpt lat="49.28807" lon="-0.11545">
        <ele>6</ele>
        <time>2017-11-26T10:30:21Z</time>
      </trkpt>
      <trkpt lat="49.288" lon="-0.11547">
        <ele>6</ele>
        <time>2017-11-26T10:30:26Z</time>
      </trkpt>
      <trkpt lat="49.28794" lon="-0.11549">
        <ele>6</ele>
        <time>2017-11-26T10:30:31Z</time>
      </trkpt>
      <trkpt lat="49.28788" lon="-0.11551">
        <ele>5</ele>
        <time>2017-11-26T10:30:36Z</time>
      </trkpt>
      <trkpt lat="49.28782" lon="-0.11553">
        <ele>5</ele>
        <time>2017-11-26T10:30:42Z</time>
      </trkpt>
      <trkpt lat="49.28777" lon="-0.11557">
        <ele>5</ele>
        <time>2017-11-26T10:30:47Z</time>
      </trkpt>
      <trkpt lat="49.28772" lon="-0.11561">
        <ele>5</ele>
        <time>2017-11-26T10:30:53Z</time>
      </trkpt>
      <trkpt lat="49.28768" lon="-0.11567">
        <ele>5</ele>
        <time>2017-11-26T10:30:59Z</time>
      </trkpt>
      <trkpt lat="49.28764" lon="-0.11573">
        <ele>5</ele>
        <time>2017-11-26T10:31:05Z</time>
      </trkpt>
      <trkpt lat="49.28762" lon="-0.11581">
        <ele>5</ele>
        <time>2017-11-26T10:31:11Z</time>
      </trkpt>
      <trkpt lat="49.28759" lon="-0.11587">
        <ele>5</ele>
        <time>2017-11-26T10:31:18Z</time>
      </trkpt>
      <trkpt lat="49.28754" lon="-0.11589">
        <ele>5</ele>
        <time>2017-11-26T10:31:23Z</time>
      </trkpt>
      <trkpt lat="49.2875" lon="-0.11592">
        <ele>5</ele>
        <time>2017-11-26T10:31:28Z</time>
      </trkpt>
      <trkpt lat="49.28751" lon="-0.11601">
        <ele>5</ele>
        <time>2017-11-26T10:31:34Z</time>
      </trkpt>
      <trkpt lat="49.28751" lon="-0.11609">
        <ele>5</ele>
        <time>2017-11-26T10:31:39Z</time>
      </trkpt>
      <trkpt lat="49.28751" lon="-0.11614">
        <ele>5</ele>
        <time>2017-11-26T10:31:45Z</time>
      </trkpt>
      <trkpt lat="49.28743" lon="-0.1162">
        <ele>5</ele>
        <time>2017-11-26T10:31:53Z</time>
      </trkpt>
      <trkpt lat="49.2874" lon="-0.11618">
        <ele>5</ele>
        <time>2017-11-26T10:31:58Z</time>
      </trkpt>
      <trkpt lat="49.28737" lon="-0.11616">
        <ele>5</ele>
        <time>2017-11-26T10:32:04Z</time>
      </trkpt>
      <trkpt lat="49.28736" lon="-0.11616">
        <ele>5</ele>
        <time>2017-11-26T10:32:10Z</time>
      </trkpt>
      <trkpt lat="49.28723" lon="-0.11625">
        <ele>5</ele>
        <time>2017-11-26T10:32:18Z</time>
      </trkpt>
      <trkpt lat="49.28717" lon="-0.11616">
        <ele>5</ele>
        <time>2017-11-26T10:32:25Z</time>
      </trkpt>
      <trkpt lat="49.28724" lon="-0.11613">
        <ele>5</ele>
        <time>2017-11-26T10:32:32Z</time>
      </trkpt>
      <trkpt lat="49.28726" lon="-0.11609">
        <ele>5</ele>
        <time>2017-11-26T10:32:38Z</time>
      </trkpt>
      <trkpt lat="49.28729" lon="-0.11606">
        <ele>5</ele>
        <time>2017-11-26T10:32:44Z</time>
      </trkpt>
      <trkpt lat="49.28733" lon="-0.11601">
        <ele>5</ele>
        <time>2017-11-26T10:32:52Z</time>
      </trkpt>
      <trkpt lat="49.28735" lon="-0.11598">
        <ele>5</ele>
        <time>2017-11-26T10:32:59Z</time>
      </trkpt>
      <trkpt lat="49.28734" lon="-0.11589">
        <ele>5</ele>
        <time>2017-11-26T10:33:05Z</time>
      </trkpt>
      <trkpt lat="49.2873" lon="-0.11584">
        <ele>5</ele>
        <time>2017-11-26T10:33:12Z</time>
      </trkpt>
      <trkpt lat="49.28728" lon="-0.11577">
        <ele>5</ele>
        <time>2017-11-26T10:33:18Z</time>
      </trkpt>
      <trkpt lat="49.28725" lon="-0.11573">
        <ele>5</ele>
        <time>2017-11-26T10:33:23Z</time>
      </trkpt>
      <trkpt lat="49.28719" lon="-0.1157">
        <ele>5</ele>
        <time>2017-11-26T10:33:30Z</time>
      </trkpt>
      <trkpt lat="49.28715" lon="-0.11568">
        <ele>6</ele>
        <time>2017-11-26T10:33:36Z</time>
      </trkpt>
      <trkpt lat="49.28711" lon="-0.11562">
        <ele>6</ele>
        <time>2017-11-26T10:33:42Z</time>
      </trkpt>
      <trkpt lat="49.28709" lon="-0.11555">
        <ele>6</ele>
        <time>2017-11-26T10:33:47Z</time>
      </trkpt>
      <trkpt lat="49.28711" lon="-0.11552">
        <ele>6</ele>
        <time>2017-11-26T10:33:53Z</time>
      </trkpt>
      <trkpt lat="49.28708" lon="-0.11537">
        <ele>6</ele>
        <time>2017-11-26T10:33:58Z</time>
      </trkpt>
      <trkpt lat="49.28708" lon="-0.11528">
        <ele>6</ele>
        <time>2017-11-26T10:34:04Z</time>
      </trkpt>
      <trkpt lat="49.28706" lon="-0.1152">
        <ele>6</ele>
        <time>2017-11-26T10:34:09Z</time>
      </trkpt>
      <trkpt lat="49.28705" lon="-0.11511">
        <ele>6</ele>
        <time>2017-11-26T10:34:14Z</time>
      </trkpt>
      <trkpt lat="49.28703" lon="-0.11501">
        <ele>6</ele>
        <time>2017-11-26T10:34:20Z</time>
      </trkpt>
      <trkpt lat="49.28699" lon="-0.11489">
        <ele>6</ele>
        <time>2017-11-26T10:34:26Z</time>
      </trkpt>
      <trkpt lat="49.28696" lon="-0.11481">
        <ele>6</ele>
        <time>2017-11-26T10:34:33Z</time>
      </trkpt>
      <trkpt lat="49.28693" lon="-0.11473">
        <ele>6</ele>
        <time>2017-11-26T10:34:38Z</time>
      </trkpt>
      <trkpt lat="49.2869" lon="-0.11466">
        <ele>6</ele>
        <time>2017-11-26T10:34:43Z</time>
      </trkpt>
      <trkpt lat="49.28685" lon="-0.11458">
        <ele>6</ele>
        <time>2017-11-26T10:34:50Z</time>
      </trkpt>
      <trkpt lat="49.28679" lon="-0.11453">
        <ele>6</ele>
        <time>2017-11-26T10:34:56Z</time>
      </trkpt>
      <trkpt lat="49.28674" lon="-0.11449">
        <ele>6</ele>
        <time>2017-11-26T10:35:01Z</time>
      </trkpt>
      <trkpt lat="49.28669" lon="-0.11448">
        <ele>6</ele>
        <time>2017-11-26T10:35:06Z</time>
      </trkpt>
      <trkpt lat="49.28664" lon="-0.11449">
        <ele>6</ele>
        <time>2017-11-26T10:35:13Z</time>
      </trkpt>
      <trkpt lat="49.2866" lon="-0.11437">
        <ele>6</ele>
        <time>2017-11-26T10:35:18Z</time>
      </trkpt>
      <trkpt lat="49.28655" lon="-0.11426">
        <ele>6</ele>
        <time>2017-11-26T10:35:24Z</time>
      </trkpt>
      <trkpt lat="49.28652" lon="-0.11416">
        <ele>6</ele>
        <time>2017-11-26T10:35:29Z</time>
      </trkpt>
      <trkpt lat="49.28652" lon="-0.11407">
        <ele>6</ele>
        <time>2017-11-26T10:35:34Z</time>
      </trkpt>
      <trkpt lat="49.28652" lon="-0.11399">
        <ele>6</ele>
        <time>2017-11-26T10:35:40Z</time>
      </trkpt>
      <trkpt lat="49.28648" lon="-0.11393">
        <ele>6</ele>
        <time>2017-11-26T10:35:45Z</time>
      </trkpt>
      <trkpt lat="49.28644" lon="-0.11387">
        <ele>6</ele>
        <time>2017-11-26T10:35:51Z</time>
      </trkpt>
      <trkpt lat="49.28641" lon="-0.11378">
        <ele>6</ele>
        <time>2017-11-26T10:35:56Z</time>
      </trkpt>
      <trkpt lat="49.28638" lon="-0.1137">
        <ele>6</ele>
        <time>2017-11-26T10:36:01Z</time>
      </trkpt>
      <trkpt lat="49.28635" lon="-0.11362">
        <ele>6</ele>
        <time>2017-11-26T10:36:08Z</time>
      </trkpt>
      <trkpt lat="49.28633" lon="-0.11353">
        <ele>6</ele>
        <time>2017-11-26T10:36:13Z</time>
      </trkpt>
      <trkpt lat="49.2863" lon="-0.11343">
        <ele>6</ele>
        <time>2017-11-26T10:36:18Z</time>
      </trkpt>
      <trkpt lat="49.28627" lon="-0.11334">
        <ele>6</ele>
        <time>2017-11-26T10:36:24Z</time>
      </trkpt>
      <trkpt lat="49.28623" lon="-0.11325">
        <ele>6</ele>
        <time>2017-11-26T10:36:30Z</time>
      </trkpt>
      <trkpt lat="49.2862" lon="-0.11315">
        <ele>5</ele>
        <time>2017-11-26T10:36:36Z</time>
      </trkpt>
      <trkpt lat="49.28618" lon="-0.11308">
        <ele>5</ele>
        <time>2017-11-26T10:36:42Z</time>
      </trkpt>
      <trkpt lat="49.28616" lon="-0.11299">
        <ele>5</ele>
        <time>2017-11-26T10:36:47Z</time>
      </trkpt>
      <trkpt lat="49.28615" lon="-0.1129">
        <ele>5</ele>
        <time>2017-11-26T10:36:53Z</time>
      </trkpt>
      <trkpt lat="49.28613" lon="-0.11282">
        <ele>5</ele>
        <time>2017-11-26T10:36:58Z</time>
      </trkpt>
      <trkpt lat="49.2861" lon="-0.11273">
        <ele>5</ele>
        <time>2017-11-26T10:37:03Z</time>
      </trkpt>
      <trkpt lat="49.28608" lon="-0.11262">
        <ele>5</ele>
        <time>2017-11-26T10:37:08Z</time>
      </trkpt>
      <trkpt lat="49.28606" lon="-0.11253">
        <ele>5</ele>
        <time>2017-11-26T10:37:14Z</time>
      </trkpt>
      <trkpt lat="49.28607" lon="-0.11246">
        <ele>4</ele>
        <time>2017-11-26T10:37:20Z</time>
      </trkpt>
      <trkpt lat="49.28611" lon="-0.11239">
        <ele>4</ele>
        <time>2017-11-26T10:37:25Z</time>
      </trkpt>
      <trkpt lat="49.2861" lon="-0.1123">
        <ele>4</ele>
        <time>2017-11-26T10:37:32Z</time>
      </trkpt>
      <trkpt lat="49.28606" lon="-0.11219">
        <ele>4</ele>
        <time>2017-11-26T10:37:38Z</time>
      </trkpt>
      <trkpt lat="49.28601" lon="-0.11216">
        <ele>4</ele>
        <time>2017-11-26T10:37:43Z</time>
      </trkpt>
      <trkpt lat="49.28596" lon="-0.11214">
        <ele>4</ele>
        <time>2017-11-26T10:37:48Z</time>
      </trkpt>
      <trkpt lat="49.28593" lon="-0.11204">
        <ele>4</ele>
        <time>2017-11-26T10:37:54Z</time>
      </trkpt>
      <trkpt lat="49.28591" lon="-0.11196">
        <ele>4</ele>
        <time>2017-11-26T10:37:59Z</time>
      </trkpt>
      <trkpt lat="49.28588" lon="-0.11187">
        <ele>4</ele>
        <time>2017-11-26T10:38:04Z</time>
      </trkpt>
      <trkpt lat="49.28587" lon="-0.11179">
        <ele>4</ele>
        <time>2017-11-26T10:38:09Z</time>
      </trkpt>
      <trkpt lat="49.28584" lon="-0.1117">
        <ele>4</ele>
        <time>2017-11-26T10:38:14Z</time>
      </trkpt>
      <trkpt lat="49.28582" lon="-0.11161">
        <ele>4</ele>
        <time>2017-11-26T10:38:20Z</time>
      </trkpt>
      <trkpt lat="49.28579" lon="-0.11151">
        <ele>5</ele>
        <time>2017-11-26T10:38:26Z</time>
      </trkpt>
      <trkpt lat="49.28576" lon="-0.11142">
        <ele>5</ele>
        <time>2017-11-26T10:38:31Z</time>
      </trkpt>
      <trkpt lat="49.28573" lon="-0.11135">
        <ele>5</ele>
        <time>2017-11-26T10:38:36Z</time>
      </trkpt>
      <trkpt lat="49.28572" lon="-0.11127">
        <ele>5</ele>
        <time>2017-11-26T10:38:43Z</time>
      </trkpt>
      <trkpt lat="49.28571" lon="-0.1112">
        <ele>6</ele>
        <time>2017-11-26T10:38:48Z</time>
      </trkpt>
      <trkpt lat="49.28573" lon="-0.11113">
        <ele>6</ele>
        <time>2017-11-26T10:38:53Z</time>
      </trkpt>
      <trkpt lat="49.28577" lon="-0.11107">
        <ele>6</ele>
        <time>2017-11-26T10:38:59Z</time>
      </trkpt>
      <trkpt lat="49.2858" lon="-0.11098">
        <ele>6</ele>
        <time>2017-11-26T10:39:05Z</time>
      </trkpt>
      <trkpt lat="49.28585" lon="-0.11089">
        <ele>7</ele>
        <time>2017-11-26T10:39:11Z</time>
      </trkpt>
      <trkpt lat="49.2859" lon="-0.1108">
        <ele>7</ele>
        <time>2017-11-26T10:39:18Z</time>
      </trkpt>
      <trkpt lat="49.28595" lon="-0.11072">
        <ele>6</ele>
        <time>2017-11-26T10:39:23Z</time>
      </trkpt>
      <trkpt lat="49.286" lon="-0.11066">
        <ele>6</ele>
        <time>2017-11-26T10:39:29Z</time>
      </trkpt>
      <trkpt lat="49.28606" lon="-0.11058">
        <ele>6</ele>
        <time>2017-11-26T10:39:35Z</time>
      </trkpt>
      <trkpt lat="49.28611" lon="-0.11052">
        <ele>6</ele>
        <time>2017-11-26T10:39:41Z</time>
      </trkpt>
      <trkpt lat="49.28616" lon="-0.11045">
        <ele>6</ele>
        <time>2017-11-26T10:39:48Z</time>
      </trkpt>
      <trkpt lat="49.28621" lon="-0.11038">
        <ele>5</ele>
        <time>2017-11-26T10:39:53Z</time>
      </trkpt>
      <trkpt lat="49.28625" lon="-0.1103">
        <ele>5</ele>
        <time>2017-11-26T10:40:00Z</time>
      </trkpt>
      <trkpt lat="49.2863" lon="-0.11023">
        <ele>5</ele>
        <time>2017-11-26T10:40:05Z</time>
      </trkpt>
      <trkpt lat="49.28635" lon="-0.11016">
        <ele>5</ele>
        <time>2017-11-26T10:40:11Z</time>
      </trkpt>
      <trkpt lat="49.2864" lon="-0.11008">
        <ele>5</ele>
        <time>2017-11-26T10:40:18Z</time>
      </trkpt>
      <trkpt lat="49.28645" lon="-0.11">
        <ele>5</ele>
        <time>2017-11-26T10:40:24Z</time>
      </trkpt>
      <trkpt lat="49.2865" lon="-0.10993">
        <ele>4</ele>
        <time>2017-11-26T10:40:29Z</time>
      </trkpt>
      <trkpt lat="49.28654" lon="-0.10985">
        <ele>4</ele>
        <time>2017-11-26T10:40:35Z</time>
      </trkpt>
      <trkpt lat="49.28658" lon="-0.10978">
        <ele>4</ele>
        <time>2017-11-26T10:40:41Z</time>
      </trkpt>
      <trkpt lat="49.28661" lon="-0.10971">
        <ele>4</ele>
        <time>2017-11-26T10:40:46Z</time>
      </trkpt>
      <trkpt lat="49.28664" lon="-0.10963">
        <ele>4</ele>
        <time>2017-11-26T10:40:51Z</time>
      </trkpt>
      <trkpt lat="49.28668" lon="-0.10954">
        <ele>4</ele>
        <time>2017-11-26T10:40:58Z</time>
      </trkpt>
      <trkpt lat="49.28672" lon="-0.10944">
        <ele>4</ele>
        <time>2017-11-26T10:41:03Z</time>
      </trkpt>
      <trkpt lat="49.28676" lon="-0.10936">
        <ele>4</ele>
        <time>2017-11-26T10:41:09Z</time>
      </trkpt>
      <trkpt lat="49.28681" lon="-0.10927">
        <ele>4</ele>
        <time>2017-11-26T10:41:15Z</time>
      </trkpt>
      <trkpt lat="49.28685" lon="-0.10919">
        <ele>4</ele>
        <time>2017-11-26T10:41:21Z</time>
      </trkpt>
      <trkpt lat="49.2869" lon="-0.10911">
        <ele>3</ele>
        <time>2017-11-26T10:41:28Z</time>
      </trkpt>
      <trkpt lat="49.28694" lon="-0.10904">
        <ele>3</ele>
        <time>2017-11-26T10:41:33Z</time>
      </trkpt>
      <trkpt lat="49.28698" lon="-0.10897">
        <ele>3</ele>
        <time>2017-11-26T10:41:39Z</time>
      </trkpt>
      <trkpt lat="49.28701" lon="-0.10889">
        <ele>3</ele>
        <time>2017-11-26T10:41:45Z</time>
      </trkpt>
      <trkpt lat="49.28705" lon="-0.10881">
        <ele>3</ele>
        <time>2017-11-26T10:41:52Z</time>
      </trkpt>
      <trkpt lat="49.28708" lon="-0.10872">
        <ele>3</ele>
        <time>2017-11-26T10:41:58Z</time>
      </trkpt>
      <trkpt lat="49.28711" lon="-0.10865">
        <ele>3</ele>
        <time>2017-11-26T10:42:03Z</time>
      </trkpt>
      <trkpt lat="49.28714" lon="-0.10857">
        <ele>3</ele>
        <time>2017-11-26T10:42:08Z</time>
      </trkpt>
      <trkpt lat="49.28718" lon="-0.10848">
        <ele>3</ele>
        <time>2017-11-26T10:42:13Z</time>
      </trkpt>
      <trkpt lat="49.28721" lon="-0.10839">
        <ele>3</ele>
        <time>2017-11-26T10:42:20Z</time>
      </trkpt>
      <trkpt lat="49.28724" lon="-0.1083">
        <ele>3</ele>
        <time>2017-11-26T10:42:26Z</time>
      </trkpt>
      <trkpt lat="49.28726" lon="-0.10821">
        <ele>3</ele>
        <time>2017-11-26T10:42:32Z</time>
      </trkpt>
      <trkpt lat="49.2873" lon="-0.10811">
        <ele>3</ele>
        <time>2017-11-26T10:42:38Z</time>
      </trkpt>
      <trkpt lat="49.28733" lon="-0.10803">
        <ele>3</ele>
        <time>2017-11-26T10:42:44Z</time>
      </trkpt>
      <trkpt lat="49.28736" lon="-0.10795">
        <ele>3</ele>
        <time>2017-11-26T10:42:50Z</time>
      </trkpt>
      <trkpt lat="49.2874" lon="-0.10787">
        <ele>2</ele>
        <time>2017-11-26T10:42:56Z</time>
      </trkpt>
      <trkpt lat="49.28742" lon="-0.10779">
        <ele>2</ele>
        <time>2017-11-26T10:43:01Z</time>
      </trkpt>
      <trkpt lat="49.28746" lon="-0.10771">
        <ele>2</ele>
        <time>2017-11-26T10:43:08Z</time>
      </trkpt>
      <trkpt lat="49.2875" lon="-0.10762">
        <ele>2</ele>
        <time>2017-11-26T10:43:13Z</time>
      </trkpt>
      <trkpt lat="49.28754" lon="-0.10754">
        <ele>2</ele>
        <time>2017-11-26T10:43:19Z</time>
      </trkpt>
      <trkpt lat="49.28757" lon="-0.10745">
        <ele>2</ele>
        <time>2017-11-26T10:43:25Z</time>
      </trkpt>
      <trkpt lat="49.28761" lon="-0.10736">
        <ele>2</ele>
        <time>2017-11-26T10:43:31Z</time>
      </trkpt>
      <trkpt lat="49.28765" lon="-0.10728">
        <ele>2</ele>
        <time>2017-11-26T10:43:38Z</time>
      </trkpt>
      <trkpt lat="49.28768" lon="-0.10719">
        <ele>2</ele>
        <time>2017-11-26T10:43:43Z</time>
      </trkpt>
      <trkpt lat="49.28771" lon="-0.10711">
        <ele>2</ele>
        <time>2017-11-26T10:43:48Z</time>
      </trkpt>
      <trkpt lat="49.28775" lon="-0.10703">
        <ele>2</ele>
        <time>2017-11-26T10:43:54Z</time>
      </trkpt>
      <trkpt lat="49.28779" lon="-0.10694">
        <ele>2</ele>
        <time>2017-11-26T10:44:00Z</time>
      </trkpt>
      <trkpt lat="49.28783" lon="-0.10686">
        <ele>2</ele>
        <time>2017-11-26T10:44:06Z</time>
      </trkpt>
      <trkpt lat="49.28787" lon="-0.10678">
        <ele>2</ele>
        <time>2017-11-26T10:44:13Z</time>
      </trkpt>
      <trkpt lat="49.28792" lon="-0.10671">
        <ele>2</ele>
        <time>2017-11-26T10:44:18Z</time>
      </trkpt>
      <trkpt lat="49.28797" lon="-0.10665">
        <ele>2</ele>
        <time>2017-11-26T10:44:24Z</time>
      </trkpt>
      <trkpt lat="49.28803" lon="-0.1066">
        <ele>2</ele>
        <time>2017-11-26T10:44:30Z</time>
      </trkpt>
      <trkpt lat="49.28807" lon="-0.10657">
        <ele>2</ele>
        <time>2017-11-26T10:44:35Z</time>
      </trkpt>
      <trkpt lat="49.28812" lon="-0.10655">
        <ele>1</ele>
        <time>2017-11-26T10:44:41Z</time>
      </trkpt>
      <trkpt lat="49.28816" lon="-0.10652">
        <ele>1</ele>
        <time>2017-11-26T10:44:49Z</time>
      </trkpt>
      <trkpt lat="49.28821" lon="-0.10647">
        <ele>1</ele>
        <time>2017-11-26T10:44:54Z</time>
      </trkpt>
      <trkpt lat="49.28827" lon="-0.10641">
        <ele>1</ele>
        <time>2017-11-26T10:44:59Z</time>
      </trkpt>
      <trkpt lat="49.28832" lon="-0.10637">
        <ele>1</ele>
        <time>2017-11-26T10:45:04Z</time>
      </trkpt>
      <trkpt lat="49.28838" lon="-0.10629">
        <ele>1</ele>
        <time>2017-11-26T10:45:10Z</time>
      </trkpt>
      <trkpt lat="49.28844" lon="-0.10623">
        <ele>1</ele>
        <time>2017-11-26T10:45:16Z</time>
      </trkpt>
      <trkpt lat="49.28845" lon="-0.10622">
        <ele>1</ele>
        <time>2017-11-26T10:45:21Z</time>
      </trkpt>
      <trkpt lat="49.28849" lon="-0.10619">
        <ele>1</ele>
        <time>2017-11-26T10:45:28Z</time>
      </trkpt>
      <trkpt lat="49.28852" lon="-0.10616">
        <ele>1</ele>
        <time>2017-11-26T10:45:34Z</time>
      </trkpt>
      <trkpt lat="49.28857" lon="-0.1061">
        <ele>1</ele>
        <time>2017-11-26T10:45:40Z</time>
      </trkpt>
      <trkpt lat="49.28861" lon="-0.10604">
        <ele>1</ele>
        <time>2017-11-26T10:45:46Z</time>
      </trkpt>
      <trkpt lat="49.28866" lon="-0.10598">
        <ele>1</ele>
        <time>2017-11-26T10:45:53Z</time>
      </trkpt>
      <trkpt lat="49.28871" lon="-0.10594">
        <ele>1</ele>
        <time>2017-11-26T10:45:58Z</time>
      </trkpt>
      <trkpt lat="49.28877" lon="-0.10588">
        <ele>1</ele>
        <time>2017-11-26T10:46:04Z</time>
      </trkpt>
      <trkpt lat="49.28882" lon="-0.10581">
        <ele>1</ele>
        <time>2017-11-26T10:46:10Z</time>
      </trkpt>
      <trkpt lat="49.28888" lon="-0.10574">
        <ele>1</ele>
        <time>2017-11-26T10:46:16Z</time>
      </trkpt>
      <trkpt lat="49.28894" lon="-0.10567">
        <ele>1</ele>
        <time>2017-11-26T10:46:23Z</time>
      </trkpt>
      <trkpt lat="49.28899" lon="-0.1056">
        <ele>1</ele>
        <time>2017-11-26T10:46:28Z</time>
      </trkpt>
      <trkpt lat="49.28904" lon="-0.10554">
        <ele>1</ele>
        <time>2017-11-26T10:46:34Z</time>
      </trkpt>
      <trkpt lat="49.28909" lon="-0.10547">
        <ele>1</ele>
        <time>2017-11-26T10:46:40Z</time>
      </trkpt>
      <trkpt lat="49.28914" lon="-0.10541">
        <ele>1</ele>
        <time>2017-11-26T10:46:46Z</time>
      </trkpt>
      <trkpt lat="49.2892" lon="-0.10536">
        <ele>1</ele>
        <time>2017-11-26T10:46:53Z</time>
      </trkpt>
      <trkpt lat="49.28925" lon="-0.1053">
        <ele>1</ele>
        <time>2017-11-26T10:46:58Z</time>
      </trkpt>
      <trkpt lat="49.2893" lon="-0.10523">
        <ele>1</ele>
        <time>2017-11-26T10:47:04Z</time>
      </trkpt>
      <trkpt lat="49.28935" lon="-0.10517">
        <ele>1</ele>
        <time>2017-11-26T10:47:10Z</time>
      </trkpt>
      <trkpt lat="49.2894" lon="-0.10511">
        <ele>1</ele>
        <time>2017-11-26T10:47:16Z</time>
      </trkpt>
      <trkpt lat="49.28944" lon="-0.10505">
        <ele>1</ele>
        <time>2017-11-26T10:47:23Z</time>
      </trkpt>
      <trkpt lat="49.28949" lon="-0.10499">
        <ele>1</ele>
        <time>2017-11-26T10:47:28Z</time>
      </trkpt>
      <trkpt lat="49.28953" lon="-0.10494">
        <ele>1</ele>
        <time>2017-11-26T10:47:34Z</time>
      </trkpt>
      <trkpt lat="49.28957" lon="-0.10488">
        <ele>1</ele>
        <time>2017-11-26T10:47:40Z</time>
      </trkpt>
      <trkpt lat="49.28962" lon="-0.10483">
        <ele>1</ele>
        <time>2017-11-26T10:47:46Z</time>
      </trkpt>
      <trkpt lat="49.28966" lon="-0.10477">
        <ele>1</ele>
        <time>2017-11-26T10:47:53Z</time>
      </trkpt>
      <trkpt lat="49.28971" lon="-0.10472">
        <ele>1</ele>
        <time>2017-11-26T10:47:58Z</time>
      </trkpt>
      <trkpt lat="49.28976" lon="-0.10467">
        <ele>1</ele>
        <time>2017-11-26T10:48:04Z</time>
      </trkpt>
      <trkpt lat="49.28981" lon="-0.10462">
        <ele>1</ele>
        <time>2017-11-26T10:48:10Z</time>
      </trkpt>
      <trkpt lat="49.28987" lon="-0.10456">
        <ele>2</ele>
        <time>2017-11-26T10:48:16Z</time>
      </trkpt>
      <trkpt lat="49.28992" lon="-0.10449">
        <ele>2</ele>
        <time>2017-11-26T10:48:23Z</time>
      </trkpt>
      <trkpt lat="49.28997" lon="-0.10444">
        <ele>2</ele>
        <time>2017-11-26T10:48:28Z</time>
      </trkpt>
      <trkpt lat="49.29002" lon="-0.10439">
        <ele>2</ele>
        <time>2017-11-26T10:48:33Z</time>
      </trkpt>
      <trkpt lat="49.29008" lon="-0.10432">
        <ele>2</ele>
        <time>2017-11-26T10:48:39Z</time>
      </trkpt>
      <trkpt lat="49.29009" lon="-0.10423">
        <ele>2</ele>
        <time>2017-11-26T10:48:44Z</time>
      </trkpt>
      <trkpt lat="49.29011" lon="-0.10415">
        <ele>2</ele>
        <time>2017-11-26T10:48:50Z</time>
      </trkpt>
      <trkpt lat="49.29016" lon="-0.10415">
        <ele>2</ele>
        <time>2017-11-26T10:48:55Z</time>
      </trkpt>
      <trkpt lat="49.29021" lon="-0.10412">
        <ele>2</ele>
        <time>2017-11-26T10:49:00Z</time>
      </trkpt>
      <trkpt lat="49.29026" lon="-0.10407">
        <ele>2</ele>
        <time>2017-11-26T10:49:06Z</time>
      </trkpt>
      <trkpt lat="49.29027" lon="-0.10397">
        <ele>3</ele>
        <time>2017-11-26T10:49:13Z</time>
      </trkpt>
      <trkpt lat="49.29028" lon="-0.10389">
        <ele>3</ele>
        <time>2017-11-26T10:49:18Z</time>
      </trkpt>
      <trkpt lat="49.29029" lon="-0.10381">
        <ele>3</ele>
        <time>2017-11-26T10:49:23Z</time>
      </trkpt>
      <trkpt lat="49.29029" lon="-0.10373">
        <ele>3</ele>
        <time>2017-11-26T10:49:28Z</time>
      </trkpt>
      <trkpt lat="49.29031" lon="-0.10364">
        <ele>3</ele>
        <time>2017-11-26T10:49:33Z</time>
      </trkpt>
      <trkpt lat="49.29032" lon="-0.10356">
        <ele>3</ele>
        <time>2017-11-26T10:49:38Z</time>
      </trkpt>
      <trkpt lat="49.29034" lon="-0.10348">
        <ele>3</ele>
        <time>2017-11-26T10:49:44Z</time>
      </trkpt>
      <trkpt lat="49.29037" lon="-0.1034">
        <ele>3</ele>
        <time>2017-11-26T10:49:50Z</time>
      </trkpt>
      <trkpt lat="49.29036" lon="-0.10331">
        <ele>3</ele>
        <time>2017-11-26T10:49:56Z</time>
      </trkpt>
      <trkpt lat="49.29038" lon="-0.10323">
        <ele>3</ele>
        <time>2017-11-26T10:50:03Z</time>
      </trkpt>
      <trkpt lat="49.29042" lon="-0.10316">
        <ele>3</ele>
        <time>2017-11-26T10:50:08Z</time>
      </trkpt>
      <trkpt lat="49.29045" lon="-0.10308">
        <ele>3</ele>
        <time>2017-11-26T10:50:14Z</time>
      </trkpt>
      <trkpt lat="49.29049" lon="-0.10302">
        <ele>3</ele>
        <time>2017-11-26T10:50:20Z</time>
      </trkpt>
      <trkpt lat="49.29053" lon="-0.10294">
        <ele>3</ele>
        <time>2017-11-26T10:50:26Z</time>
      </trkpt>
      <trkpt lat="49.29057" lon="-0.10287">
        <ele>3</ele>
        <time>2017-11-26T10:50:33Z</time>
      </trkpt>
      <trkpt lat="49.2906" lon="-0.1028">
        <ele>2</ele>
        <time>2017-11-26T10:50:38Z</time>
      </trkpt>
      <trkpt lat="49.29065" lon="-0.10272">
        <ele>2</ele>
        <time>2017-11-26T10:50:44Z</time>
      </trkpt>
      <trkpt lat="49.29069" lon="-0.10266">
        <ele>2</ele>
        <time>2017-11-26T10:50:50Z</time>
      </trkpt>
      <trkpt lat="49.29074" lon="-0.10259">
        <ele>2</ele>
        <time>2017-11-26T10:50:56Z</time>
      </trkpt>
      <trkpt lat="49.29079" lon="-0.10251">
        <ele>2</ele>
        <time>2017-11-26T10:51:03Z</time>
      </trkpt>
      <trkpt lat="49.29083" lon="-0.10245">
        <ele>2</ele>
        <time>2017-11-26T10:51:08Z</time>
      </trkpt>
      <trkpt lat="49.29086" lon="-0.10238">
        <ele>2</ele>
        <time>2017-11-26T10:51:13Z</time>
      </trkpt>
      <trkpt lat="49.29089" lon="-0.10232">
        <ele>2</ele>
        <time>2017-11-26T10:51:19Z</time>
      </trkpt>
      <trkpt lat="49.29094" lon="-0.10226">
        <ele>2</ele>
        <time>2017-11-26T10:51:25Z</time>
      </trkpt>
      <trkpt lat="49.29098" lon="-0.10219">
        <ele>2</ele>
        <time>2017-11-26T10:51:31Z</time>
      </trkpt>
      <trkpt lat="49.29102" lon="-0.10212">
        <ele>2</ele>
        <time>2017-11-26T10:51:38Z</time>
      </trkpt>
      <trkpt lat="49.29105" lon="-0.10206">
        <ele>2</ele>
        <time>2017-11-26T10:51:44Z</time>
      </trkpt>
      <trkpt lat="49.29105" lon="-0.10201">
        <ele>2</ele>
        <time>2017-11-26T10:51:49Z</time>
      </trkpt>
      <trkpt lat="49.29106" lon="-0.10193">
        <ele>2</ele>
        <time>2017-11-26T10:51:54Z</time>
      </trkpt>
      <trkpt lat="49.29107" lon="-0.10185">
        <ele>2</ele>
        <time>2017-11-26T10:51:59Z</time>
      </trkpt>
      <trkpt lat="49.29106" lon="-0.10176">
        <ele>2</ele>
        <time>2017-11-26T10:52:05Z</time>
      </trkpt>
      <trkpt lat="49.29108" lon="-0.10168">
        <ele>2</ele>
        <time>2017-11-26T10:52:11Z</time>
      </trkpt>
      <trkpt lat="49.29107" lon="-0.10162">
        <ele>2</ele>
        <time>2017-11-26T10:52:16Z</time>
      </trkpt>
      <trkpt lat="49.29107" lon="-0.10153">
        <ele>2</ele>
        <time>2017-11-26T10:52:23Z</time>
      </trkpt>
      <trkpt lat="49.29106" lon="-0.10144">
        <ele>2</ele>
        <time>2017-11-26T10:52:28Z</time>
      </trkpt>
      <trkpt lat="49.29105" lon="-0.10136">
        <ele>2</ele>
        <time>2017-11-26T10:52:34Z</time>
      </trkpt>
      <trkpt lat="49.29105" lon="-0.10129">
        <ele>2</ele>
        <time>2017-11-26T10:52:40Z</time>
      </trkpt>
      <trkpt lat="49.29105" lon="-0.1012">
        <ele>2</ele>
        <time>2017-11-26T10:52:46Z</time>
      </trkpt>
      <trkpt lat="49.29108" lon="-0.10112">
        <ele>2</ele>
        <time>2017-11-26T10:52:51Z</time>
      </trkpt>
      <trkpt lat="49.29113" lon="-0.10104">
        <ele>2</ele>
        <time>2017-11-26T10:52:58Z</time>
      </trkpt>
      <trkpt lat="49.29117" lon="-0.10096">
        <ele>2</ele>
        <time>2017-11-26T10:53:03Z</time>
      </trkpt>
      <trkpt lat="49.29121" lon="-0.10088">
        <ele>2</ele>
        <time>2017-11-26T10:53:09Z</time>
      </trkpt>
      <trkpt lat="49.29126" lon="-0.10082">
        <ele>3</ele>
        <time>2017-11-26T10:53:15Z</time>
      </trkpt>
      <trkpt lat="49.2913" lon="-0.10075">
        <ele>3</ele>
        <time>2017-11-26T10:53:21Z</time>
      </trkpt>
      <trkpt lat="49.29133" lon="-0.10068">
        <ele>3</ele>
        <time>2017-11-26T10:53:28Z</time>
      </trkpt>
      <trkpt lat="49.29133" lon="-0.1006">
        <ele>3</ele>
        <time>2017-11-26T10:53:33Z</time>
      </trkpt>
      <trkpt lat="49.29137" lon="-0.10051">
        <ele>3</ele>
        <time>2017-11-26T10:53:39Z</time>
      </trkpt>
      <trkpt lat="49.2914" lon="-0.10043">
        <ele>3</ele>
        <time>2017-11-26T10:53:45Z</time>
      </trkpt>
      <trkpt lat="49.29144" lon="-0.10036">
        <ele>3</ele>
        <time>2017-11-26T10:53:50Z</time>
      </trkpt>
      <trkpt lat="49.29148" lon="-0.10028">
        <ele>3</ele>
        <time>2017-11-26T10:53:56Z</time>
      </trkpt>
      <trkpt lat="49.29148" lon="-0.10021">
        <ele>3</ele>
        <time>2017-11-26T10:54:03Z</time>
      </trkpt>
      <trkpt lat="49.29144" lon="-0.10017">
        <ele>3</ele>
        <time>2017-11-26T10:54:08Z</time>
      </trkpt>
      <trkpt lat="49.29139" lon="-0.10022">
        <ele>3</ele>
        <time>2017-11-26T10:54:14Z</time>
      </trkpt>
      <trkpt lat="49.29137" lon="-0.10029">
        <ele>3</ele>
        <time>2017-11-26T10:54:19Z</time>
      </trkpt>
      <trkpt lat="49.29132" lon="-0.10037">
        <ele>3</ele>
        <time>2017-11-26T10:54:25Z</time>
      </trkpt>
      <trkpt lat="49.29127" lon="-0.10044">
        <ele>3</ele>
        <time>2017-11-26T10:54:31Z</time>
      </trkpt>
      <trkpt lat="49.29122" lon="-0.10052">
        <ele>3</ele>
        <time>2017-11-26T10:54:38Z</time>
      </trkpt>
      <trkpt lat="49.29118" lon="-0.10058">
        <ele>3</ele>
        <time>2017-11-26T10:54:43Z</time>
      </trkpt>
      <trkpt lat="49.29113" lon="-0.10065">
        <ele>3</ele>
        <time>2017-11-26T10:54:49Z</time>
      </trkpt>
      <trkpt lat="49.2911" lon="-0.10072">
        <ele>3</ele>
        <time>2017-11-26T10:54:54Z</time>
      </trkpt>
      <trkpt lat="49.29105" lon="-0.1008">
        <ele>3</ele>
        <time>2017-11-26T10:55:00Z</time>
      </trkpt>
      <trkpt lat="49.291" lon="-0.10087">
        <ele>2</ele>
        <time>2017-11-26T10:55:06Z</time>
      </trkpt>
      <trkpt lat="49.29096" lon="-0.10093">
        <ele>2</ele>
        <time>2017-11-26T10:55:13Z</time>
      </trkpt>
      <trkpt lat="49.29091" lon="-0.101">
        <ele>2</ele>
        <time>2017-11-26T10:55:18Z</time>
      </trkpt>
      <trkpt lat="49.29086" lon="-0.10108">
        <ele>2</ele>
        <time>2017-11-26T10:55:24Z</time>
      </trkpt>
      <trkpt lat="49.29083" lon="-0.10114">
        <ele>2</ele>
        <time>2017-11-26T10:55:30Z</time>
      </trkpt>
      <trkpt lat="49.29078" lon="-0.1012">
        <ele>2</ele>
        <time>2017-11-26T10:55:35Z</time>
      </trkpt>
      <trkpt lat="49.29073" lon="-0.10127">
        <ele>2</ele>
        <time>2017-11-26T10:55:41Z</time>
      </trkpt>
      <trkpt lat="49.29068" lon="-0.10133">
        <ele>2</ele>
        <time>2017-11-26T10:55:46Z</time>
      </trkpt>
      <trkpt lat="49.29064" lon="-0.10138">
        <ele>2</ele>
        <time>2017-11-26T10:55:51Z</time>
      </trkpt>
      <trkpt lat="49.29058" lon="-0.10144">
        <ele>2</ele>
        <time>2017-11-26T10:55:58Z</time>
      </trkpt>
      <trkpt lat="49.29053" lon="-0.10149">
        <ele>2</ele>
        <time>2017-11-26T10:56:03Z</time>
      </trkpt>
      <trkpt lat="49.29048" lon="-0.10156">
        <ele>2</ele>
        <time>2017-11-26T10:56:09Z</time>
      </trkpt>
      <trkpt lat="49.29043" lon="-0.10162">
        <ele>2</ele>
        <time>2017-11-26T10:56:14Z</time>
      </trkpt>
      <trkpt lat="49.29037" lon="-0.10167">
        <ele>2</ele>
        <time>2017-11-26T10:56:19Z</time>
      </trkpt>
      <trkpt lat="49.29033" lon="-0.10173">
        <ele>2</ele>
        <time>2017-11-26T10:56:25Z</time>
      </trkpt>
      <trkpt lat="49.29028" lon="-0.1018">
        <ele>2</ele>
        <time>2017-11-26T10:56:30Z</time>
      </trkpt>
      <trkpt lat="49.29023" lon="-0.10188">
        <ele>2</ele>
        <time>2017-11-26T10:56:36Z</time>
      </trkpt>
      <trkpt lat="49.2902" lon="-0.10191">
        <ele>2</ele>
        <time>2017-11-26T10:56:43Z</time>
      </trkpt>
      <trkpt lat="49.29016" lon="-0.10197">
        <ele>2</ele>
        <time>2017-11-26T10:56:48Z</time>
      </trkpt>
      <trkpt lat="49.29013" lon="-0.10202">
        <ele>2</ele>
        <time>2017-11-26T10:56:53Z</time>
      </trkpt>
      <trkpt lat="49.29009" lon="-0.10208">
        <ele>2</ele>
        <time>2017-11-26T10:56:59Z</time>
      </trkpt>
      <trkpt lat="49.29006" lon="-0.10215">
        <ele>2</ele>
        <time>2017-11-26T10:57:04Z</time>
      </trkpt>
      <trkpt lat="49.29002" lon="-0.10222">
        <ele>2</ele>
        <time>2017-11-26T10:57:10Z</time>
      </trkpt>
      <trkpt lat="49.28997" lon="-0.10227">
        <ele>2</ele>
        <time>2017-11-26T10:57:15Z</time>
      </trkpt>
      <trkpt lat="49.29002" lon="-0.10234">
        <ele>1</ele>
        <time>2017-11-26T10:57:20Z</time>
      </trkpt>
      <trkpt lat="49.29008" lon="-0.10233">
        <ele>1</ele>
        <time>2017-11-26T10:57:26Z</time>
      </trkpt>
      <trkpt lat="49.29008" lon="-0.10233">
        <ele>1</ele>
        <time>2017-11-26T10:57:31Z</time>
      </trkpt>
    </trkseg>
  </trk>
</gpx>